<?xml version="1.0" encoding="UTF-8" standalone="no" ?>
<gpx xmlns="http://www.topografix.com/GPX/1/1" xmlns:xsi="http://www.w3.org/2001/XMLSchema-instance" xsi:schemaLocation="http://www.topografix.com/GPX/1/1 http://www.topografix.com/GPX/1/1/gpx.xsd" version="1.1" creator="VisuGPX - https://www.visugpx.com">
  <metadata>
    <name>Course à pied dans l'après-midi</name>
  </metadata>
  <trk>
    <name><![CDATA[Course à pied dans l'après-midi_1]]></name>
    <trkseg>
      <trkpt lat="44.39837" lon="4.38767">
        <ele>98.8</ele>
        <time>2024-03-01T14:39:26Z</time>
      </trkpt>
      <trkpt lat="44.39842" lon="4.38791">
        <ele>98.2</ele>
        <time>2024-03-01T14:39:32Z</time>
      </trkpt>
      <trkpt lat="44.39842" lon="4.38821">
        <ele>97.4</ele>
        <time>2024-03-01T14:39:36Z</time>
      </trkpt>
      <trkpt lat="44.39847" lon="4.38845">
        <ele>96.2</ele>
        <time>2024-03-01T14:39:44Z</time>
      </trkpt>
      <trkpt lat="44.39849" lon="4.38871">
        <ele>94.8</ele>
        <time>2024-03-01T14:39:51Z</time>
      </trkpt>
      <trkpt lat="44.39835" lon="4.38887">
        <ele>93.9</ele>
        <time>2024-03-01T14:39:57Z</time>
      </trkpt>
      <trkpt lat="44.39822" lon="4.38905">
        <ele>93.6</ele>
        <time>2024-03-01T14:40:07Z</time>
      </trkpt>
      <trkpt lat="44.39819" lon="4.38915">
        <ele>93.5</ele>
        <time>2024-03-01T14:40:17Z</time>
      </trkpt>
      <trkpt lat="44.39823" lon="4.38921">
        <ele>93.6</ele>
        <time>2024-03-01T14:40:20Z</time>
      </trkpt>
      <trkpt lat="44.3984" lon="4.3893">
        <ele>93.8</ele>
        <time>2024-03-01T14:40:31Z</time>
      </trkpt>
      <trkpt lat="44.39856" lon="4.38942">
        <ele>94</ele>
        <time>2024-03-01T14:40:39Z</time>
      </trkpt>
      <trkpt lat="44.39872" lon="4.38956">
        <ele>94.4</ele>
        <time>2024-03-01T14:40:46Z</time>
      </trkpt>
      <trkpt lat="44.3989" lon="4.3897">
        <ele>94.9</ele>
        <time>2024-03-01T14:40:53Z</time>
      </trkpt>
      <trkpt lat="44.39907" lon="4.38987">
        <ele>95.8</ele>
        <time>2024-03-01T14:41:00Z</time>
      </trkpt>
      <trkpt lat="44.39916" lon="4.39">
        <ele>96</ele>
        <time>2024-03-01T14:41:04Z</time>
      </trkpt>
      <trkpt lat="44.39914" lon="4.39025">
        <ele>95.1</ele>
        <time>2024-03-01T14:41:10Z</time>
      </trkpt>
      <trkpt lat="44.39915" lon="4.39053">
        <ele>94.2</ele>
        <time>2024-03-01T14:41:17Z</time>
      </trkpt>
      <trkpt lat="44.39917" lon="4.39078">
        <ele>94.1</ele>
        <time>2024-03-01T14:41:23Z</time>
      </trkpt>
      <trkpt lat="44.39913" lon="4.39106">
        <ele>93.8</ele>
        <time>2024-03-01T14:41:30Z</time>
      </trkpt>
      <trkpt lat="44.39909" lon="4.39134">
        <ele>93.4</ele>
        <time>2024-03-01T14:41:37Z</time>
      </trkpt>
      <trkpt lat="44.39906" lon="4.39161">
        <ele>93.1</ele>
        <time>2024-03-01T14:41:43Z</time>
      </trkpt>
      <trkpt lat="44.39906" lon="4.39188">
        <ele>92.9</ele>
        <time>2024-03-01T14:41:49Z</time>
      </trkpt>
      <trkpt lat="44.39904" lon="4.39217">
        <ele>92.5</ele>
        <time>2024-03-01T14:41:56Z</time>
      </trkpt>
      <trkpt lat="44.39902" lon="4.39243">
        <ele>92.2</ele>
        <time>2024-03-01T14:42:02Z</time>
      </trkpt>
      <trkpt lat="44.39899" lon="4.39268">
        <ele>92</ele>
        <time>2024-03-01T14:42:08Z</time>
      </trkpt>
      <trkpt lat="44.39897" lon="4.39294">
        <ele>91.8</ele>
        <time>2024-03-01T14:42:14Z</time>
      </trkpt>
      <trkpt lat="44.39895" lon="4.39319">
        <ele>91.7</ele>
        <time>2024-03-01T14:42:20Z</time>
      </trkpt>
      <trkpt lat="44.39893" lon="4.39348">
        <ele>91.6</ele>
        <time>2024-03-01T14:42:27Z</time>
      </trkpt>
      <trkpt lat="44.39889" lon="4.39376">
        <ele>91.6</ele>
        <time>2024-03-01T14:42:34Z</time>
      </trkpt>
      <trkpt lat="44.39885" lon="4.39403">
        <ele>91.5</ele>
        <time>2024-03-01T14:42:41Z</time>
      </trkpt>
      <trkpt lat="44.39881" lon="4.39431">
        <ele>91.5</ele>
        <time>2024-03-01T14:42:48Z</time>
      </trkpt>
      <trkpt lat="44.39878" lon="4.39459">
        <ele>91.4</ele>
        <time>2024-03-01T14:42:55Z</time>
      </trkpt>
      <trkpt lat="44.39874" lon="4.39487">
        <ele>91.3</ele>
        <time>2024-03-01T14:43:02Z</time>
      </trkpt>
      <trkpt lat="44.39871" lon="4.39516">
        <ele>91.3</ele>
        <time>2024-03-01T14:43:09Z</time>
      </trkpt>
      <trkpt lat="44.39873" lon="4.39542">
        <ele>91.4</ele>
        <time>2024-03-01T14:43:16Z</time>
      </trkpt>
      <trkpt lat="44.39887" lon="4.3956">
        <ele>91.2</ele>
        <time>2024-03-01T14:43:23Z</time>
      </trkpt>
      <trkpt lat="44.39904" lon="4.3956">
        <ele>91.2</ele>
        <time>2024-03-01T14:43:30Z</time>
      </trkpt>
      <trkpt lat="44.39923" lon="4.39552">
        <ele>91.2</ele>
        <time>2024-03-01T14:43:37Z</time>
      </trkpt>
      <trkpt lat="44.39942" lon="4.39543">
        <ele>91.4</ele>
        <time>2024-03-01T14:43:44Z</time>
      </trkpt>
      <trkpt lat="44.3996" lon="4.39534">
        <ele>91.6</ele>
        <time>2024-03-01T14:43:51Z</time>
      </trkpt>
      <trkpt lat="44.39979" lon="4.39535">
        <ele>91.9</ele>
        <time>2024-03-01T14:43:58Z</time>
      </trkpt>
      <trkpt lat="44.39999" lon="4.39542">
        <ele>92.3</ele>
        <time>2024-03-01T14:44:05Z</time>
      </trkpt>
      <trkpt lat="44.40013" lon="4.39558">
        <ele>92.5</ele>
        <time>2024-03-01T14:44:12Z</time>
      </trkpt>
      <trkpt lat="44.40026" lon="4.39578">
        <ele>92.9</ele>
        <time>2024-03-01T14:44:19Z</time>
      </trkpt>
      <trkpt lat="44.4004" lon="4.39599">
        <ele>93.3</ele>
        <time>2024-03-01T14:44:26Z</time>
      </trkpt>
      <trkpt lat="44.40053" lon="4.39617">
        <ele>93.7</ele>
        <time>2024-03-01T14:44:32Z</time>
      </trkpt>
      <trkpt lat="44.40069" lon="4.39635">
        <ele>94</ele>
        <time>2024-03-01T14:44:39Z</time>
      </trkpt>
      <trkpt lat="44.40083" lon="4.39652">
        <ele>94.3</ele>
        <time>2024-03-01T14:44:45Z</time>
      </trkpt>
      <trkpt lat="44.40096" lon="4.39668">
        <ele>94.6</ele>
        <time>2024-03-01T14:44:51Z</time>
      </trkpt>
      <trkpt lat="44.40111" lon="4.39685">
        <ele>95</ele>
        <time>2024-03-01T14:44:57Z</time>
      </trkpt>
      <trkpt lat="44.40127" lon="4.39703">
        <ele>95.5</ele>
        <time>2024-03-01T14:45:04Z</time>
      </trkpt>
      <trkpt lat="44.40143" lon="4.39721">
        <ele>96.1</ele>
        <time>2024-03-01T14:45:11Z</time>
      </trkpt>
      <trkpt lat="44.40159" lon="4.39734">
        <ele>96.6</ele>
        <time>2024-03-01T14:45:17Z</time>
      </trkpt>
      <trkpt lat="44.40178" lon="4.39747">
        <ele>97.1</ele>
        <time>2024-03-01T14:45:24Z</time>
      </trkpt>
      <trkpt lat="44.40195" lon="4.39759">
        <ele>97.4</ele>
        <time>2024-03-01T14:45:30Z</time>
      </trkpt>
      <trkpt lat="44.40211" lon="4.39769">
        <ele>97.4</ele>
        <time>2024-03-01T14:45:36Z</time>
      </trkpt>
      <trkpt lat="44.40228" lon="4.39779">
        <ele>97.4</ele>
        <time>2024-03-01T14:45:42Z</time>
      </trkpt>
      <trkpt lat="44.40246" lon="4.39786">
        <ele>97.2</ele>
        <time>2024-03-01T14:45:48Z</time>
      </trkpt>
      <trkpt lat="44.40264" lon="4.39793">
        <ele>97</ele>
        <time>2024-03-01T14:45:54Z</time>
      </trkpt>
      <trkpt lat="44.40281" lon="4.39801">
        <ele>96.9</ele>
        <time>2024-03-01T14:46:00Z</time>
      </trkpt>
      <trkpt lat="44.40299" lon="4.39809">
        <ele>96.9</ele>
        <time>2024-03-01T14:46:06Z</time>
      </trkpt>
      <trkpt lat="44.40316" lon="4.39817">
        <ele>97</ele>
        <time>2024-03-01T14:46:12Z</time>
      </trkpt>
      <trkpt lat="44.40333" lon="4.39828">
        <ele>97.2</ele>
        <time>2024-03-01T14:46:18Z</time>
      </trkpt>
      <trkpt lat="44.4035" lon="4.39843">
        <ele>97.6</ele>
        <time>2024-03-01T14:46:25Z</time>
      </trkpt>
      <trkpt lat="44.40367" lon="4.39859">
        <ele>98</ele>
        <time>2024-03-01T14:46:32Z</time>
      </trkpt>
      <trkpt lat="44.40384" lon="4.39875">
        <ele>98.2</ele>
        <time>2024-03-01T14:46:39Z</time>
      </trkpt>
      <trkpt lat="44.40391" lon="4.39902">
        <ele>98.5</ele>
        <time>2024-03-01T14:46:46Z</time>
      </trkpt>
      <trkpt lat="44.40393" lon="4.39928">
        <ele>98.9</ele>
        <time>2024-03-01T14:46:52Z</time>
      </trkpt>
      <trkpt lat="44.40405" lon="4.39947">
        <ele>99</ele>
        <time>2024-03-01T14:46:59Z</time>
      </trkpt>
      <trkpt lat="44.40426" lon="4.39948">
        <ele>99.1</ele>
        <time>2024-03-01T14:47:06Z</time>
      </trkpt>
      <trkpt lat="44.40443" lon="4.39955">
        <ele>99.3</ele>
        <time>2024-03-01T14:47:12Z</time>
      </trkpt>
      <trkpt lat="44.4046" lon="4.3997">
        <ele>99.5</ele>
        <time>2024-03-01T14:47:18Z</time>
      </trkpt>
      <trkpt lat="44.40474" lon="4.39987">
        <ele>99.8</ele>
        <time>2024-03-01T14:47:24Z</time>
      </trkpt>
      <trkpt lat="44.40487" lon="4.40008">
        <ele>100.1</ele>
        <time>2024-03-01T14:47:30Z</time>
      </trkpt>
      <trkpt lat="44.40498" lon="4.40029">
        <ele>100.5</ele>
        <time>2024-03-01T14:47:36Z</time>
      </trkpt>
      <trkpt lat="44.40507" lon="4.40054">
        <ele>101</ele>
        <time>2024-03-01T14:47:42Z</time>
      </trkpt>
      <trkpt lat="44.40514" lon="4.40078">
        <ele>101.3</ele>
        <time>2024-03-01T14:47:48Z</time>
      </trkpt>
      <trkpt lat="44.40523" lon="4.401">
        <ele>101.6</ele>
        <time>2024-03-01T14:47:54Z</time>
      </trkpt>
      <trkpt lat="44.40537" lon="4.40122">
        <ele>101.8</ele>
        <time>2024-03-01T14:48:01Z</time>
      </trkpt>
      <trkpt lat="44.4055" lon="4.4014">
        <ele>102.1</ele>
        <time>2024-03-01T14:48:07Z</time>
      </trkpt>
      <trkpt lat="44.40564" lon="4.40157">
        <ele>102.2</ele>
        <time>2024-03-01T14:48:13Z</time>
      </trkpt>
      <trkpt lat="44.40582" lon="4.4017">
        <ele>102.3</ele>
        <time>2024-03-01T14:48:20Z</time>
      </trkpt>
      <trkpt lat="44.40601" lon="4.40175">
        <ele>102.2</ele>
        <time>2024-03-01T14:48:26Z</time>
      </trkpt>
      <trkpt lat="44.40621" lon="4.40178">
        <ele>102.1</ele>
        <time>2024-03-01T14:48:32Z</time>
      </trkpt>
      <trkpt lat="44.40641" lon="4.40182">
        <ele>102.1</ele>
        <time>2024-03-01T14:48:38Z</time>
      </trkpt>
      <trkpt lat="44.4066" lon="4.40188">
        <ele>102.2</ele>
        <time>2024-03-01T14:48:44Z</time>
      </trkpt>
      <trkpt lat="44.40679" lon="4.402">
        <ele>102.4</ele>
        <time>2024-03-01T14:48:50Z</time>
      </trkpt>
      <trkpt lat="44.40697" lon="4.40213">
        <ele>102.8</ele>
        <time>2024-03-01T14:48:56Z</time>
      </trkpt>
      <trkpt lat="44.40712" lon="4.40231">
        <ele>103.2</ele>
        <time>2024-03-01T14:49:02Z</time>
      </trkpt>
      <trkpt lat="44.40717" lon="4.40259">
        <ele>103.8</ele>
        <time>2024-03-01T14:49:08Z</time>
      </trkpt>
      <trkpt lat="44.40709" lon="4.40283">
        <ele>104.2</ele>
        <time>2024-03-01T14:49:14Z</time>
      </trkpt>
      <trkpt lat="44.40695" lon="4.40302">
        <ele>104.6</ele>
        <time>2024-03-01T14:49:20Z</time>
      </trkpt>
      <trkpt lat="44.40682" lon="4.40321">
        <ele>105.1</ele>
        <time>2024-03-01T14:49:26Z</time>
      </trkpt>
      <trkpt lat="44.40669" lon="4.4034">
        <ele>105.7</ele>
        <time>2024-03-01T14:49:32Z</time>
      </trkpt>
      <trkpt lat="44.40656" lon="4.40358">
        <ele>106.5</ele>
        <time>2024-03-01T14:49:38Z</time>
      </trkpt>
      <trkpt lat="44.40643" lon="4.4038">
        <ele>107.8</ele>
        <time>2024-03-01T14:49:45Z</time>
      </trkpt>
      <trkpt lat="44.4063" lon="4.40403">
        <ele>109.5</ele>
        <time>2024-03-01T14:49:53Z</time>
      </trkpt>
      <trkpt lat="44.40621" lon="4.40425">
        <ele>111.4</ele>
        <time>2024-03-01T14:50:01Z</time>
      </trkpt>
      <trkpt lat="44.40609" lon="4.40447">
        <ele>113.8</ele>
        <time>2024-03-01T14:50:11Z</time>
      </trkpt>
      <trkpt lat="44.40614" lon="4.40473">
        <ele>115.8</ele>
        <time>2024-03-01T14:50:19Z</time>
      </trkpt>
      <trkpt lat="44.40624" lon="4.40495">
        <ele>117.6</ele>
        <time>2024-03-01T14:50:26Z</time>
      </trkpt>
      <trkpt lat="44.40622" lon="4.40519">
        <ele>120.2</ele>
        <time>2024-03-01T14:50:37Z</time>
      </trkpt>
      <trkpt lat="44.4061" lon="4.40538">
        <ele>122.6</ele>
        <time>2024-03-01T14:50:46Z</time>
      </trkpt>
      <trkpt lat="44.40597" lon="4.40558">
        <ele>123.8</ele>
        <time>2024-03-01T14:50:54Z</time>
      </trkpt>
      <trkpt lat="44.40592" lon="4.40586">
        <ele>123.9</ele>
        <time>2024-03-01T14:51:01Z</time>
      </trkpt>
      <trkpt lat="44.40584" lon="4.40611">
        <ele>123.7</ele>
        <time>2024-03-01T14:51:07Z</time>
      </trkpt>
      <trkpt lat="44.40572" lon="4.40631">
        <ele>123.7</ele>
        <time>2024-03-01T14:51:13Z</time>
      </trkpt>
      <trkpt lat="44.40559" lon="4.4065">
        <ele>123.9</ele>
        <time>2024-03-01T14:51:19Z</time>
      </trkpt>
      <trkpt lat="44.40549" lon="4.40673">
        <ele>124.2</ele>
        <time>2024-03-01T14:51:26Z</time>
      </trkpt>
      <trkpt lat="44.40544" lon="4.40697">
        <ele>124.7</ele>
        <time>2024-03-01T14:51:32Z</time>
      </trkpt>
      <trkpt lat="44.40542" lon="4.40724">
        <ele>125.3</ele>
        <time>2024-03-01T14:51:39Z</time>
      </trkpt>
      <trkpt lat="44.40532" lon="4.40747">
        <ele>127.1</ele>
        <time>2024-03-01T14:51:48Z</time>
      </trkpt>
      <trkpt lat="44.40518" lon="4.40764">
        <ele>127.7</ele>
        <time>2024-03-01T14:51:55Z</time>
      </trkpt>
      <trkpt lat="44.40503" lon="4.40781">
        <ele>127.8</ele>
        <time>2024-03-01T14:52:02Z</time>
      </trkpt>
      <trkpt lat="44.40487" lon="4.40799">
        <ele>128</ele>
        <time>2024-03-01T14:52:09Z</time>
      </trkpt>
      <trkpt lat="44.40476" lon="4.4082">
        <ele>128.6</ele>
        <time>2024-03-01T14:52:15Z</time>
      </trkpt>
      <trkpt lat="44.40465" lon="4.40842">
        <ele>128.9</ele>
        <time>2024-03-01T14:52:21Z</time>
      </trkpt>
      <trkpt lat="44.40467" lon="4.40867">
        <ele>129</ele>
        <time>2024-03-01T14:52:27Z</time>
      </trkpt>
      <trkpt lat="44.40482" lon="4.40885">
        <ele>129.5</ele>
        <time>2024-03-01T14:52:34Z</time>
      </trkpt>
      <trkpt lat="44.40496" lon="4.40904">
        <ele>130.4</ele>
        <time>2024-03-01T14:52:41Z</time>
      </trkpt>
      <trkpt lat="44.40499" lon="4.4093">
        <ele>131</ele>
        <time>2024-03-01T14:52:49Z</time>
      </trkpt>
      <trkpt lat="44.40499" lon="4.40956">
        <ele>131.3</ele>
        <time>2024-03-01T14:52:57Z</time>
      </trkpt>
      <trkpt lat="44.405" lon="4.40982">
        <ele>130.2</ele>
        <time>2024-03-01T14:53:04Z</time>
      </trkpt>
      <trkpt lat="44.40502" lon="4.40984">
        <ele>130</ele>
        <time>2024-03-01T14:53:05Z</time>
      </trkpt>
      <trkpt lat="44.40504" lon="4.40983">
        <ele>129.7</ele>
        <time>2024-03-01T14:53:07Z</time>
      </trkpt>
      <trkpt lat="44.40508" lon="4.40981">
        <ele>129.1</ele>
        <time>2024-03-01T14:53:09Z</time>
      </trkpt>
      <trkpt lat="44.4051" lon="4.41007">
        <ele>126.3</ele>
        <time>2024-03-01T14:53:17Z</time>
      </trkpt>
      <trkpt lat="44.40511" lon="4.41032">
        <ele>123.3</ele>
        <time>2024-03-01T14:53:24Z</time>
      </trkpt>
      <trkpt lat="44.4051" lon="4.41061">
        <ele>120.1</ele>
        <time>2024-03-01T14:53:31Z</time>
      </trkpt>
      <trkpt lat="44.40504" lon="4.41088">
        <ele>117.2</ele>
        <time>2024-03-01T14:53:38Z</time>
      </trkpt>
      <trkpt lat="44.40497" lon="4.41112">
        <ele>114.4</ele>
        <time>2024-03-01T14:53:45Z</time>
      </trkpt>
      <trkpt lat="44.40487" lon="4.41134">
        <ele>111.2</ele>
        <time>2024-03-01T14:53:53Z</time>
      </trkpt>
      <trkpt lat="44.40481" lon="4.41161">
        <ele>106.6</ele>
        <time>2024-03-01T14:54:00Z</time>
      </trkpt>
      <trkpt lat="44.40476" lon="4.41188">
        <ele>104.9</ele>
        <time>2024-03-01T14:54:05Z</time>
      </trkpt>
      <trkpt lat="44.40469" lon="4.41213">
        <ele>104.6</ele>
        <time>2024-03-01T14:54:10Z</time>
      </trkpt>
      <trkpt lat="44.4046" lon="4.41239">
        <ele>104.4</ele>
        <time>2024-03-01T14:54:16Z</time>
      </trkpt>
      <trkpt lat="44.4045" lon="4.41262">
        <ele>104.3</ele>
        <time>2024-03-01T14:54:22Z</time>
      </trkpt>
      <trkpt lat="44.40437" lon="4.41286">
        <ele>104.2</ele>
        <time>2024-03-01T14:54:29Z</time>
      </trkpt>
      <trkpt lat="44.40424" lon="4.41307">
        <ele>104.2</ele>
        <time>2024-03-01T14:54:35Z</time>
      </trkpt>
      <trkpt lat="44.40409" lon="4.41328">
        <ele>104.2</ele>
        <time>2024-03-01T14:54:41Z</time>
      </trkpt>
      <trkpt lat="44.40399" lon="4.41351">
        <ele>104.2</ele>
        <time>2024-03-01T14:54:47Z</time>
      </trkpt>
      <trkpt lat="44.40399" lon="4.41378">
        <ele>104.2</ele>
        <time>2024-03-01T14:54:53Z</time>
      </trkpt>
      <trkpt lat="44.40404" lon="4.41403">
        <ele>103.8</ele>
        <time>2024-03-01T14:55:00Z</time>
      </trkpt>
      <trkpt lat="44.40414" lon="4.41428">
        <ele>103.8</ele>
        <time>2024-03-01T14:55:07Z</time>
      </trkpt>
      <trkpt lat="44.40421" lon="4.41455">
        <ele>103.8</ele>
        <time>2024-03-01T14:55:15Z</time>
      </trkpt>
      <trkpt lat="44.40429" lon="4.41478">
        <ele>103.9</ele>
        <time>2024-03-01T14:55:22Z</time>
      </trkpt>
      <trkpt lat="44.40437" lon="4.41502">
        <ele>104</ele>
        <time>2024-03-01T14:55:29Z</time>
      </trkpt>
      <trkpt lat="44.40441" lon="4.4153">
        <ele>104</ele>
        <time>2024-03-01T14:55:36Z</time>
      </trkpt>
      <trkpt lat="44.40436" lon="4.41558">
        <ele>104.1</ele>
        <time>2024-03-01T14:55:43Z</time>
      </trkpt>
      <trkpt lat="44.40425" lon="4.41578">
        <ele>104.3</ele>
        <time>2024-03-01T14:55:50Z</time>
      </trkpt>
      <trkpt lat="44.40412" lon="4.41596">
        <ele>104.7</ele>
        <time>2024-03-01T14:55:57Z</time>
      </trkpt>
      <trkpt lat="44.40402" lon="4.41608">
        <ele>105.3</ele>
        <time>2024-03-01T14:56:06Z</time>
      </trkpt>
      <trkpt lat="44.40402" lon="4.41608">
        <ele>105.4</ele>
        <time>2024-03-01T14:56:08Z</time>
      </trkpt>
      <trkpt lat="44.40401" lon="4.41609">
        <ele>105.4</ele>
        <time>2024-03-01T15:00:52Z</time>
      </trkpt>
      <trkpt lat="44.40401" lon="4.41609">
        <ele>105.4</ele>
        <time>2024-03-01T15:00:53Z</time>
      </trkpt>
      <trkpt lat="44.40406" lon="4.41608">
        <ele>107.8</ele>
        <time>2024-03-01T15:00:56Z</time>
      </trkpt>
      <trkpt lat="44.40425" lon="4.41609">
        <ele>110.2</ele>
        <time>2024-03-01T15:01:06Z</time>
      </trkpt>
      <trkpt lat="44.40445" lon="4.41609">
        <ele>113.1</ele>
        <time>2024-03-01T15:01:16Z</time>
      </trkpt>
      <trkpt lat="44.40463" lon="4.41604">
        <ele>115.8</ele>
        <time>2024-03-01T15:01:27Z</time>
      </trkpt>
      <trkpt lat="44.40481" lon="4.41601">
        <ele>118.3</ele>
        <time>2024-03-01T15:01:37Z</time>
      </trkpt>
      <trkpt lat="44.405" lon="4.416">
        <ele>121.1</ele>
        <time>2024-03-01T15:01:47Z</time>
      </trkpt>
      <trkpt lat="44.40505" lon="4.41606">
        <ele>122.1</ele>
        <time>2024-03-01T15:01:50Z</time>
      </trkpt>
      <trkpt lat="44.40492" lon="4.41625">
        <ele>124.7</ele>
        <time>2024-03-01T15:02:02Z</time>
      </trkpt>
      <trkpt lat="44.40475" lon="4.4164">
        <ele>127.4</ele>
        <time>2024-03-01T15:02:13Z</time>
      </trkpt>
      <trkpt lat="44.40458" lon="4.41653">
        <ele>130.5</ele>
        <time>2024-03-01T15:02:24Z</time>
      </trkpt>
      <trkpt lat="44.40457" lon="4.41657">
        <ele>131.1</ele>
        <time>2024-03-01T15:02:26Z</time>
      </trkpt>
      <trkpt lat="44.40475" lon="4.41663">
        <ele>134.4</ele>
        <time>2024-03-01T15:02:39Z</time>
      </trkpt>
      <trkpt lat="44.40476" lon="4.41667">
        <ele>134.9</ele>
        <time>2024-03-01T15:02:40Z</time>
      </trkpt>
      <trkpt lat="44.40475" lon="4.41669">
        <ele>135.1</ele>
        <time>2024-03-01T15:02:42Z</time>
      </trkpt>
      <trkpt lat="44.40461" lon="4.41686">
        <ele>138</ele>
        <time>2024-03-01T15:02:54Z</time>
      </trkpt>
      <trkpt lat="44.40445" lon="4.417">
        <ele>140.1</ele>
        <time>2024-03-01T15:03:03Z</time>
      </trkpt>
      <trkpt lat="44.40428" lon="4.41713">
        <ele>142</ele>
        <time>2024-03-01T15:03:12Z</time>
      </trkpt>
      <trkpt lat="44.40412" lon="4.4173">
        <ele>144.4</ele>
        <time>2024-03-01T15:03:22Z</time>
      </trkpt>
      <trkpt lat="44.40401" lon="4.41751">
        <ele>147.1</ele>
        <time>2024-03-01T15:03:32Z</time>
      </trkpt>
      <trkpt lat="44.40401" lon="4.41776">
        <ele>148.5</ele>
        <time>2024-03-01T15:03:40Z</time>
      </trkpt>
      <trkpt lat="44.40404" lon="4.41803">
        <ele>149.3</ele>
        <time>2024-03-01T15:03:48Z</time>
      </trkpt>
      <trkpt lat="44.40409" lon="4.41827">
        <ele>150.6</ele>
        <time>2024-03-01T15:03:57Z</time>
      </trkpt>
      <trkpt lat="44.40415" lon="4.41855">
        <ele>152.3</ele>
        <time>2024-03-01T15:04:06Z</time>
      </trkpt>
      <trkpt lat="44.40421" lon="4.41881">
        <ele>153.9</ele>
        <time>2024-03-01T15:04:14Z</time>
      </trkpt>
      <trkpt lat="44.40426" lon="4.41908">
        <ele>155.6</ele>
        <time>2024-03-01T15:04:22Z</time>
      </trkpt>
      <trkpt lat="44.40435" lon="4.41932">
        <ele>157.3</ele>
        <time>2024-03-01T15:04:31Z</time>
      </trkpt>
      <trkpt lat="44.40442" lon="4.41958">
        <ele>159.1</ele>
        <time>2024-03-01T15:04:39Z</time>
      </trkpt>
      <trkpt lat="44.40451" lon="4.41985">
        <ele>160.9</ele>
        <time>2024-03-01T15:04:48Z</time>
      </trkpt>
      <trkpt lat="44.40458" lon="4.42009">
        <ele>162.6</ele>
        <time>2024-03-01T15:04:56Z</time>
      </trkpt>
      <trkpt lat="44.40467" lon="4.42033">
        <ele>164.3</ele>
        <time>2024-03-01T15:05:05Z</time>
      </trkpt>
      <trkpt lat="44.40473" lon="4.42057">
        <ele>166.1</ele>
        <time>2024-03-01T15:05:14Z</time>
      </trkpt>
      <trkpt lat="44.4048" lon="4.4208">
        <ele>168</ele>
        <time>2024-03-01T15:05:22Z</time>
      </trkpt>
      <trkpt lat="44.40486" lon="4.42104">
        <ele>170.2</ele>
        <time>2024-03-01T15:05:31Z</time>
      </trkpt>
      <trkpt lat="44.40493" lon="4.4213">
        <ele>172.7</ele>
        <time>2024-03-01T15:05:41Z</time>
      </trkpt>
      <trkpt lat="44.40498" lon="4.42155">
        <ele>175.2</ele>
        <time>2024-03-01T15:05:52Z</time>
      </trkpt>
      <trkpt lat="44.40497" lon="4.4218">
        <ele>178</ele>
        <time>2024-03-01T15:06:03Z</time>
      </trkpt>
      <trkpt lat="44.40494" lon="4.42207">
        <ele>180.9</ele>
        <time>2024-03-01T15:06:14Z</time>
      </trkpt>
      <trkpt lat="44.40492" lon="4.42224">
        <ele>182.5</ele>
        <time>2024-03-01T15:06:23Z</time>
      </trkpt>
      <trkpt lat="44.40492" lon="4.42226">
        <ele>182.6</ele>
        <time>2024-03-01T15:06:25Z</time>
      </trkpt>
      <trkpt lat="44.40492" lon="4.42209">
        <ele>183.9</ele>
        <time>2024-03-01T15:07:24Z</time>
      </trkpt>
      <trkpt lat="44.40492" lon="4.42197">
        <ele>184.8</ele>
        <time>2024-03-01T15:07:33Z</time>
      </trkpt>
      <trkpt lat="44.40494" lon="4.42186">
        <ele>184.2</ele>
        <time>2024-03-01T15:07:39Z</time>
      </trkpt>
      <trkpt lat="44.40491" lon="4.42159">
        <ele>181.6</ele>
        <time>2024-03-01T15:07:48Z</time>
      </trkpt>
      <trkpt lat="44.40484" lon="4.42133">
        <ele>178.4</ele>
        <time>2024-03-01T15:07:56Z</time>
      </trkpt>
      <trkpt lat="44.40477" lon="4.42105">
        <ele>174.7</ele>
        <time>2024-03-01T15:08:04Z</time>
      </trkpt>
      <trkpt lat="44.40472" lon="4.4208">
        <ele>171.8</ele>
        <time>2024-03-01T15:08:10Z</time>
      </trkpt>
      <trkpt lat="44.40466" lon="4.42056">
        <ele>169.3</ele>
        <time>2024-03-01T15:08:16Z</time>
      </trkpt>
      <trkpt lat="44.40458" lon="4.42029">
        <ele>166.6</ele>
        <time>2024-03-01T15:08:23Z</time>
      </trkpt>
      <trkpt lat="44.40449" lon="4.42002">
        <ele>164.2</ele>
        <time>2024-03-01T15:08:29Z</time>
      </trkpt>
      <trkpt lat="44.40441" lon="4.41976">
        <ele>162.1</ele>
        <time>2024-03-01T15:08:35Z</time>
      </trkpt>
      <trkpt lat="44.40434" lon="4.41951">
        <ele>160.1</ele>
        <time>2024-03-01T15:08:41Z</time>
      </trkpt>
      <trkpt lat="44.40428" lon="4.41925">
        <ele>158.2</ele>
        <time>2024-03-01T15:08:47Z</time>
      </trkpt>
      <trkpt lat="44.4042" lon="4.41902">
        <ele>156.3</ele>
        <time>2024-03-01T15:08:53Z</time>
      </trkpt>
      <trkpt lat="44.40415" lon="4.41873">
        <ele>154.3</ele>
        <time>2024-03-01T15:08:59Z</time>
      </trkpt>
      <trkpt lat="44.40408" lon="4.41849">
        <ele>152.5</ele>
        <time>2024-03-01T15:09:05Z</time>
      </trkpt>
      <trkpt lat="44.404" lon="4.41826">
        <ele>150.8</ele>
        <time>2024-03-01T15:09:11Z</time>
      </trkpt>
      <trkpt lat="44.40395" lon="4.41802">
        <ele>149.3</ele>
        <time>2024-03-01T15:09:17Z</time>
      </trkpt>
      <trkpt lat="44.40392" lon="4.41775">
        <ele>148.4</ele>
        <time>2024-03-01T15:09:24Z</time>
      </trkpt>
      <trkpt lat="44.40392" lon="4.4175">
        <ele>147</ele>
        <time>2024-03-01T15:09:31Z</time>
      </trkpt>
      <trkpt lat="44.40402" lon="4.41728">
        <ele>144.5</ele>
        <time>2024-03-01T15:09:37Z</time>
      </trkpt>
      <trkpt lat="44.40416" lon="4.41709">
        <ele>142.1</ele>
        <time>2024-03-01T15:09:43Z</time>
      </trkpt>
      <trkpt lat="44.40433" lon="4.41694">
        <ele>140.1</ele>
        <time>2024-03-01T15:09:49Z</time>
      </trkpt>
      <trkpt lat="44.40449" lon="4.4168">
        <ele>138.2</ele>
        <time>2024-03-01T15:09:55Z</time>
      </trkpt>
      <trkpt lat="44.40464" lon="4.41665">
        <ele>135.6</ele>
        <time>2024-03-01T15:10:01Z</time>
      </trkpt>
      <trkpt lat="44.40471" lon="4.41655">
        <ele>133.8</ele>
        <time>2024-03-01T15:10:05Z</time>
      </trkpt>
      <trkpt lat="44.40452" lon="4.41653">
        <ele>130.4</ele>
        <time>2024-03-01T15:10:13Z</time>
      </trkpt>
      <trkpt lat="44.4045" lon="4.41649">
        <ele>129.8</ele>
        <time>2024-03-01T15:10:14Z</time>
      </trkpt>
      <trkpt lat="44.40451" lon="4.41647">
        <ele>129.5</ele>
        <time>2024-03-01T15:10:16Z</time>
      </trkpt>
      <trkpt lat="44.40468" lon="4.41632">
        <ele>126.5</ele>
        <time>2024-03-01T15:10:24Z</time>
      </trkpt>
      <trkpt lat="44.40483" lon="4.41616">
        <ele>124</ele>
        <time>2024-03-01T15:10:31Z</time>
      </trkpt>
      <trkpt lat="44.40498" lon="4.41599">
        <ele>121.3</ele>
        <time>2024-03-01T15:10:39Z</time>
      </trkpt>
      <trkpt lat="44.40499" lon="4.41596">
        <ele>121</ele>
        <time>2024-03-01T15:10:40Z</time>
      </trkpt>
      <trkpt lat="44.40493" lon="4.41593">
        <ele>120.2</ele>
        <time>2024-03-01T15:10:43Z</time>
      </trkpt>
      <trkpt lat="44.40475" lon="4.41597">
        <ele>117.5</ele>
        <time>2024-03-01T15:10:50Z</time>
      </trkpt>
      <trkpt lat="44.40455" lon="4.41601">
        <ele>114.9</ele>
        <time>2024-03-01T15:10:57Z</time>
      </trkpt>
      <trkpt lat="44.40438" lon="4.41604">
        <ele>112.3</ele>
        <time>2024-03-01T15:11:04Z</time>
      </trkpt>
      <trkpt lat="44.40417" lon="4.41605">
        <ele>109.4</ele>
        <time>2024-03-01T15:11:12Z</time>
      </trkpt>
      <trkpt lat="44.40399" lon="4.41607">
        <ele>107.2</ele>
        <time>2024-03-01T15:11:22Z</time>
      </trkpt>
      <trkpt lat="44.40397" lon="4.41607">
        <ele>106.9</ele>
        <time>2024-03-01T15:11:24Z</time>
      </trkpt>
      <trkpt lat="44.40397" lon="4.41609">
        <ele>106.8</ele>
        <time>2024-03-01T15:13:10Z</time>
      </trkpt>
      <trkpt lat="44.40398" lon="4.4161">
        <ele>106.9</ele>
        <time>2024-03-01T15:13:13Z</time>
      </trkpt>
      <trkpt lat="44.40418" lon="4.41612">
        <ele>109.3</ele>
        <time>2024-03-01T15:13:20Z</time>
      </trkpt>
      <trkpt lat="44.40422" lon="4.41612">
        <ele>109.8</ele>
        <time>2024-03-01T15:13:21Z</time>
      </trkpt>
      <trkpt lat="44.40436" lon="4.41613">
        <ele>111.9</ele>
        <time>2024-03-01T15:13:25Z</time>
      </trkpt>
      <trkpt lat="44.40455" lon="4.41611">
        <ele>114.7</ele>
        <time>2024-03-01T15:13:31Z</time>
      </trkpt>
      <trkpt lat="44.40476" lon="4.41606">
        <ele>117.7</ele>
        <time>2024-03-01T15:13:37Z</time>
      </trkpt>
      <trkpt lat="44.40495" lon="4.41603">
        <ele>120.5</ele>
        <time>2024-03-01T15:13:43Z</time>
      </trkpt>
      <trkpt lat="44.40502" lon="4.41602">
        <ele>121.6</ele>
        <time>2024-03-01T15:13:46Z</time>
      </trkpt>
      <trkpt lat="44.40489" lon="4.41622">
        <ele>124.3</ele>
        <time>2024-03-01T15:13:53Z</time>
      </trkpt>
      <trkpt lat="44.40473" lon="4.41639">
        <ele>127</ele>
        <time>2024-03-01T15:13:59Z</time>
      </trkpt>
      <trkpt lat="44.40457" lon="4.41653">
        <ele>130</ele>
        <time>2024-03-01T15:14:05Z</time>
      </trkpt>
      <trkpt lat="44.40454" lon="4.41661">
        <ele>131.1</ele>
        <time>2024-03-01T15:14:08Z</time>
      </trkpt>
      <trkpt lat="44.40473" lon="4.41663">
        <ele>134.6</ele>
        <time>2024-03-01T15:14:15Z</time>
      </trkpt>
      <trkpt lat="44.40475" lon="4.41666">
        <ele>135.1</ele>
        <time>2024-03-01T15:14:16Z</time>
      </trkpt>
      <trkpt lat="44.40476" lon="4.41671">
        <ele>135.8</ele>
        <time>2024-03-01T15:14:18Z</time>
      </trkpt>
      <trkpt lat="44.40461" lon="4.41687">
        <ele>138.5</ele>
        <time>2024-03-01T15:14:25Z</time>
      </trkpt>
      <trkpt lat="44.40444" lon="4.41702">
        <ele>140.4</ele>
        <time>2024-03-01T15:14:31Z</time>
      </trkpt>
      <trkpt lat="44.40427" lon="4.41717">
        <ele>142.6</ele>
        <time>2024-03-01T15:14:37Z</time>
      </trkpt>
      <trkpt lat="44.40414" lon="4.41736">
        <ele>145</ele>
        <time>2024-03-01T15:14:43Z</time>
      </trkpt>
      <trkpt lat="44.40403" lon="4.41758">
        <ele>147.6</ele>
        <time>2024-03-01T15:14:50Z</time>
      </trkpt>
      <trkpt lat="44.40403" lon="4.41786">
        <ele>148.8</ele>
        <time>2024-03-01T15:14:56Z</time>
      </trkpt>
      <trkpt lat="44.40407" lon="4.41813">
        <ele>150.1</ele>
        <time>2024-03-01T15:15:01Z</time>
      </trkpt>
      <trkpt lat="44.40414" lon="4.41837">
        <ele>151.8</ele>
        <time>2024-03-01T15:15:07Z</time>
      </trkpt>
      <trkpt lat="44.4042" lon="4.41861">
        <ele>153.6</ele>
        <time>2024-03-01T15:15:13Z</time>
      </trkpt>
      <trkpt lat="44.40426" lon="4.4189">
        <ele>155.6</ele>
        <time>2024-03-01T15:15:19Z</time>
      </trkpt>
      <trkpt lat="44.40433" lon="4.41913">
        <ele>157.4</ele>
        <time>2024-03-01T15:15:24Z</time>
      </trkpt>
      <trkpt lat="44.40442" lon="4.41937">
        <ele>159.4</ele>
        <time>2024-03-01T15:15:30Z</time>
      </trkpt>
      <trkpt lat="44.40448" lon="4.41963">
        <ele>161.3</ele>
        <time>2024-03-01T15:15:36Z</time>
      </trkpt>
      <trkpt lat="44.40453" lon="4.41987">
        <ele>163.1</ele>
        <time>2024-03-01T15:15:42Z</time>
      </trkpt>
      <trkpt lat="44.40461" lon="4.4201">
        <ele>165.2</ele>
        <time>2024-03-01T15:15:48Z</time>
      </trkpt>
      <trkpt lat="44.40466" lon="4.42037">
        <ele>167.5</ele>
        <time>2024-03-01T15:15:55Z</time>
      </trkpt>
      <trkpt lat="44.40472" lon="4.42062">
        <ele>170</ele>
        <time>2024-03-01T15:16:01Z</time>
      </trkpt>
      <trkpt lat="44.4048" lon="4.42086">
        <ele>172.7</ele>
        <time>2024-03-01T15:16:07Z</time>
      </trkpt>
      <trkpt lat="44.40486" lon="4.4211">
        <ele>175.6</ele>
        <time>2024-03-01T15:16:13Z</time>
      </trkpt>
      <trkpt lat="44.40488" lon="4.42136">
        <ele>178.8</ele>
        <time>2024-03-01T15:16:20Z</time>
      </trkpt>
      <trkpt lat="44.40491" lon="4.42163">
        <ele>182.1</ele>
        <time>2024-03-01T15:16:28Z</time>
      </trkpt>
      <trkpt lat="44.40491" lon="4.4219">
        <ele>184.5</ele>
        <time>2024-03-01T15:16:35Z</time>
      </trkpt>
      <trkpt lat="44.40491" lon="4.42218">
        <ele>186.8</ele>
        <time>2024-03-01T15:16:43Z</time>
      </trkpt>
      <trkpt lat="44.40503" lon="4.42241">
        <ele>190.4</ele>
        <time>2024-03-01T15:16:52Z</time>
      </trkpt>
      <trkpt lat="44.4052" lon="4.42257">
        <ele>194.1</ele>
        <time>2024-03-01T15:17:00Z</time>
      </trkpt>
      <trkpt lat="44.40534" lon="4.42275">
        <ele>198.1</ele>
        <time>2024-03-01T15:17:09Z</time>
      </trkpt>
      <trkpt lat="44.40538" lon="4.42303">
        <ele>202.3</ele>
        <time>2024-03-01T15:17:18Z</time>
      </trkpt>
      <trkpt lat="44.40536" lon="4.42329">
        <ele>205.9</ele>
        <time>2024-03-01T15:17:26Z</time>
      </trkpt>
      <trkpt lat="44.40535" lon="4.42354">
        <ele>209.1</ele>
        <time>2024-03-01T15:17:34Z</time>
      </trkpt>
      <trkpt lat="44.40532" lon="4.42382">
        <ele>212.5</ele>
        <time>2024-03-01T15:17:42Z</time>
      </trkpt>
      <trkpt lat="44.40528" lon="4.42409">
        <ele>215.9</ele>
        <time>2024-03-01T15:17:50Z</time>
      </trkpt>
      <trkpt lat="44.40516" lon="4.42433">
        <ele>218.6</ele>
        <time>2024-03-01T15:17:57Z</time>
      </trkpt>
      <trkpt lat="44.40505" lon="4.42453">
        <ele>221</ele>
        <time>2024-03-01T15:18:04Z</time>
      </trkpt>
      <trkpt lat="44.40499" lon="4.42478">
        <ele>224.3</ele>
        <time>2024-03-01T15:18:12Z</time>
      </trkpt>
      <trkpt lat="44.40498" lon="4.42482">
        <ele>224.9</ele>
        <time>2024-03-01T15:18:13Z</time>
      </trkpt>
      <trkpt lat="44.40494" lon="4.42489">
        <ele>226.2</ele>
        <time>2024-03-01T15:18:18Z</time>
      </trkpt>
      <trkpt lat="44.40504" lon="4.42464">
        <ele>222.2</ele>
        <time>2024-03-01T15:18:28Z</time>
      </trkpt>
      <trkpt lat="44.40514" lon="4.42443">
        <ele>219.5</ele>
        <time>2024-03-01T15:18:34Z</time>
      </trkpt>
      <trkpt lat="44.40525" lon="4.42422">
        <ele>217.3</ele>
        <time>2024-03-01T15:18:40Z</time>
      </trkpt>
      <trkpt lat="44.40531" lon="4.42397">
        <ele>214.4</ele>
        <time>2024-03-01T15:18:46Z</time>
      </trkpt>
      <trkpt lat="44.40531" lon="4.4237">
        <ele>211</ele>
        <time>2024-03-01T15:18:52Z</time>
      </trkpt>
      <trkpt lat="44.40534" lon="4.42345">
        <ele>207.8</ele>
        <time>2024-03-01T15:18:58Z</time>
      </trkpt>
      <trkpt lat="44.40539" lon="4.42318">
        <ele>204.1</ele>
        <time>2024-03-01T15:19:05Z</time>
      </trkpt>
      <trkpt lat="44.40536" lon="4.42292">
        <ele>200.5</ele>
        <time>2024-03-01T15:19:11Z</time>
      </trkpt>
      <trkpt lat="44.40524" lon="4.4227">
        <ele>196.2</ele>
        <time>2024-03-01T15:19:16Z</time>
      </trkpt>
      <trkpt lat="44.40511" lon="4.42257">
        <ele>193.1</ele>
        <time>2024-03-01T15:19:20Z</time>
      </trkpt>
      <trkpt lat="44.40494" lon="4.42241">
        <ele>189.3</ele>
        <time>2024-03-01T15:19:26Z</time>
      </trkpt>
      <trkpt lat="44.40489" lon="4.42213">
        <ele>186.5</ele>
        <time>2024-03-01T15:19:31Z</time>
      </trkpt>
      <trkpt lat="44.40489" lon="4.42184">
        <ele>183.9</ele>
        <time>2024-03-01T15:19:36Z</time>
      </trkpt>
      <trkpt lat="44.40485" lon="4.42157">
        <ele>181.4</ele>
        <time>2024-03-01T15:19:42Z</time>
      </trkpt>
      <trkpt lat="44.40481" lon="4.42132">
        <ele>178.3</ele>
        <time>2024-03-01T15:19:48Z</time>
      </trkpt>
      <trkpt lat="44.40477" lon="4.42104">
        <ele>174.7</ele>
        <time>2024-03-01T15:19:54Z</time>
      </trkpt>
      <trkpt lat="44.40471" lon="4.42077">
        <ele>171.5</ele>
        <time>2024-03-01T15:20:00Z</time>
      </trkpt>
      <trkpt lat="44.40465" lon="4.42049">
        <ele>168.7</ele>
        <time>2024-03-01T15:20:06Z</time>
      </trkpt>
      <trkpt lat="44.40457" lon="4.42026">
        <ele>166.4</ele>
        <time>2024-03-01T15:20:11Z</time>
      </trkpt>
      <trkpt lat="44.40448" lon="4.42">
        <ele>164.1</ele>
        <time>2024-03-01T15:20:17Z</time>
      </trkpt>
      <trkpt lat="44.40441" lon="4.41971">
        <ele>161.8</ele>
        <time>2024-03-01T15:20:23Z</time>
      </trkpt>
      <trkpt lat="44.40436" lon="4.41946">
        <ele>159.9</ele>
        <time>2024-03-01T15:20:29Z</time>
      </trkpt>
      <trkpt lat="44.40426" lon="4.41923">
        <ele>158</ele>
        <time>2024-03-01T15:20:35Z</time>
      </trkpt>
      <trkpt lat="44.40419" lon="4.41899">
        <ele>156.1</ele>
        <time>2024-03-01T15:20:41Z</time>
      </trkpt>
      <trkpt lat="44.40416" lon="4.41874">
        <ele>154.4</ele>
        <time>2024-03-01T15:20:46Z</time>
      </trkpt>
      <trkpt lat="44.4041" lon="4.41847">
        <ele>152.5</ele>
        <time>2024-03-01T15:20:52Z</time>
      </trkpt>
      <trkpt lat="44.40403" lon="4.41823">
        <ele>150.6</ele>
        <time>2024-03-01T15:20:58Z</time>
      </trkpt>
      <trkpt lat="44.40398" lon="4.41796">
        <ele>149.1</ele>
        <time>2024-03-01T15:21:03Z</time>
      </trkpt>
      <trkpt lat="44.40394" lon="4.41771">
        <ele>148.3</ele>
        <time>2024-03-01T15:21:08Z</time>
      </trkpt>
      <trkpt lat="44.40397" lon="4.41742">
        <ele>146.3</ele>
        <time>2024-03-01T15:21:14Z</time>
      </trkpt>
      <trkpt lat="44.40408" lon="4.4172">
        <ele>143.4</ele>
        <time>2024-03-01T15:21:19Z</time>
      </trkpt>
      <trkpt lat="44.40424" lon="4.41706">
        <ele>141.1</ele>
        <time>2024-03-01T15:21:24Z</time>
      </trkpt>
      <trkpt lat="44.40441" lon="4.41691">
        <ele>139</ele>
        <time>2024-03-01T15:21:30Z</time>
      </trkpt>
      <trkpt lat="44.40458" lon="4.41675">
        <ele>136</ele>
        <time>2024-03-01T15:21:37Z</time>
      </trkpt>
      <trkpt lat="44.40473" lon="4.41657">
        <ele>132.1</ele>
        <time>2024-03-01T15:21:45Z</time>
      </trkpt>
      <trkpt lat="44.40477" lon="4.41631">
        <ele>128.6</ele>
        <time>2024-03-01T15:21:53Z</time>
      </trkpt>
      <trkpt lat="44.40487" lon="4.41609">
        <ele>125.8</ele>
        <time>2024-03-01T15:22:00Z</time>
      </trkpt>
      <trkpt lat="44.40501" lon="4.41598">
        <ele>123.4</ele>
        <time>2024-03-01T15:22:07Z</time>
      </trkpt>
      <trkpt lat="44.40498" lon="4.41594">
        <ele>122.7</ele>
        <time>2024-03-01T15:22:10Z</time>
      </trkpt>
      <trkpt lat="44.40478" lon="4.41599">
        <ele>119.4</ele>
        <time>2024-03-01T15:22:18Z</time>
      </trkpt>
      <trkpt lat="44.4046" lon="4.41603">
        <ele>116.6</ele>
        <time>2024-03-01T15:22:25Z</time>
      </trkpt>
      <trkpt lat="44.40442" lon="4.41607">
        <ele>113.7</ele>
        <time>2024-03-01T15:22:31Z</time>
      </trkpt>
      <trkpt lat="44.40421" lon="4.41606">
        <ele>110.3</ele>
        <time>2024-03-01T15:22:38Z</time>
      </trkpt>
      <trkpt lat="44.40402" lon="4.41607">
        <ele>107.7</ele>
        <time>2024-03-01T15:22:46Z</time>
      </trkpt>
      <trkpt lat="44.40402" lon="4.41608">
        <ele>107.5</ele>
        <time>2024-03-01T15:22:48Z</time>
      </trkpt>
      <trkpt lat="44.404" lon="4.41609">
        <ele>107.3</ele>
        <time>2024-03-01T15:22:51Z</time>
      </trkpt>
      <trkpt lat="44.40398" lon="4.41611">
        <ele>107</ele>
        <time>2024-03-01T15:23:01Z</time>
      </trkpt>
      <trkpt lat="44.40398" lon="4.41611">
        <ele>107</ele>
        <time>2024-03-01T15:23:02Z</time>
      </trkpt>
      <trkpt lat="44.40417" lon="4.41608">
        <ele>109</ele>
        <time>2024-03-01T15:23:08Z</time>
      </trkpt>
      <trkpt lat="44.40437" lon="4.41609">
        <ele>111.5</ele>
        <time>2024-03-01T15:23:13Z</time>
      </trkpt>
      <trkpt lat="44.4044" lon="4.41609">
        <ele>112</ele>
        <time>2024-03-01T15:23:14Z</time>
      </trkpt>
      <trkpt lat="44.40459" lon="4.41608">
        <ele>114.6</ele>
        <time>2024-03-01T15:23:20Z</time>
      </trkpt>
      <trkpt lat="44.40474" lon="4.41618">
        <ele>122.6</ele>
        <time>2024-03-01T15:23:28Z</time>
      </trkpt>
      <trkpt lat="44.40479" lon="4.41643">
        <ele>134.5</ele>
        <time>2024-03-01T15:23:43Z</time>
      </trkpt>
      <trkpt lat="44.40472" lon="4.41668">
        <ele>137.2</ele>
        <time>2024-03-01T15:23:54Z</time>
      </trkpt>
      <trkpt lat="44.40457" lon="4.41688">
        <ele>139.3</ele>
        <time>2024-03-01T15:24:02Z</time>
      </trkpt>
      <trkpt lat="44.40441" lon="4.41701">
        <ele>140.8</ele>
        <time>2024-03-01T15:24:08Z</time>
      </trkpt>
      <trkpt lat="44.40424" lon="4.41714">
        <ele>142.6</ele>
        <time>2024-03-01T15:24:14Z</time>
      </trkpt>
      <trkpt lat="44.40409" lon="4.41729">
        <ele>144.6</ele>
        <time>2024-03-01T15:24:20Z</time>
      </trkpt>
      <trkpt lat="44.40397" lon="4.41749">
        <ele>146.9</ele>
        <time>2024-03-01T15:24:26Z</time>
      </trkpt>
      <trkpt lat="44.40398" lon="4.41775">
        <ele>148.4</ele>
        <time>2024-03-01T15:24:32Z</time>
      </trkpt>
      <trkpt lat="44.40401" lon="4.41801">
        <ele>149.3</ele>
        <time>2024-03-01T15:24:37Z</time>
      </trkpt>
      <trkpt lat="44.40408" lon="4.41827">
        <ele>151</ele>
        <time>2024-03-01T15:24:43Z</time>
      </trkpt>
      <trkpt lat="44.40416" lon="4.41854">
        <ele>153</ele>
        <time>2024-03-01T15:24:50Z</time>
      </trkpt>
      <trkpt lat="44.40421" lon="4.41882">
        <ele>154.9</ele>
        <time>2024-03-01T15:24:56Z</time>
      </trkpt>
      <trkpt lat="44.40428" lon="4.41905">
        <ele>156.7</ele>
        <time>2024-03-01T15:25:01Z</time>
      </trkpt>
      <trkpt lat="44.40435" lon="4.4193">
        <ele>158.7</ele>
        <time>2024-03-01T15:25:07Z</time>
      </trkpt>
      <trkpt lat="44.40446" lon="4.41956">
        <ele>160.8</ele>
        <time>2024-03-01T15:25:13Z</time>
      </trkpt>
      <trkpt lat="44.40454" lon="4.41979">
        <ele>162.6</ele>
        <time>2024-03-01T15:25:18Z</time>
      </trkpt>
      <trkpt lat="44.4046" lon="4.42004">
        <ele>164.7</ele>
        <time>2024-03-01T15:25:24Z</time>
      </trkpt>
      <trkpt lat="44.40467" lon="4.42029">
        <ele>166.9</ele>
        <time>2024-03-01T15:25:30Z</time>
      </trkpt>
      <trkpt lat="44.40476" lon="4.42054">
        <ele>169.3</ele>
        <time>2024-03-01T15:25:36Z</time>
      </trkpt>
      <trkpt lat="44.40482" lon="4.42077">
        <ele>171.8</ele>
        <time>2024-03-01T15:25:42Z</time>
      </trkpt>
      <trkpt lat="44.40486" lon="4.42103">
        <ele>174.8</ele>
        <time>2024-03-01T15:25:49Z</time>
      </trkpt>
      <trkpt lat="44.40488" lon="4.42131">
        <ele>178.2</ele>
        <time>2024-03-01T15:25:57Z</time>
      </trkpt>
      <trkpt lat="44.40493" lon="4.42158">
        <ele>181.6</ele>
        <time>2024-03-01T15:26:05Z</time>
      </trkpt>
      <trkpt lat="44.40494" lon="4.42186">
        <ele>184.2</ele>
        <time>2024-03-01T15:26:12Z</time>
      </trkpt>
      <trkpt lat="44.40495" lon="4.42213">
        <ele>186.6</ele>
        <time>2024-03-01T15:26:19Z</time>
      </trkpt>
      <trkpt lat="44.40498" lon="4.42234">
        <ele>189</ele>
        <time>2024-03-01T15:26:26Z</time>
      </trkpt>
      <trkpt lat="44.40512" lon="4.42249">
        <ele>192.3</ele>
        <time>2024-03-01T15:26:34Z</time>
      </trkpt>
      <trkpt lat="44.40529" lon="4.42266">
        <ele>196.2</ele>
        <time>2024-03-01T15:26:42Z</time>
      </trkpt>
      <trkpt lat="44.4054" lon="4.42288">
        <ele>200.4</ele>
        <time>2024-03-01T15:26:51Z</time>
      </trkpt>
      <trkpt lat="44.40541" lon="4.42313">
        <ele>203.8</ele>
        <time>2024-03-01T15:26:58Z</time>
      </trkpt>
      <trkpt lat="44.40538" lon="4.42342">
        <ele>207.6</ele>
        <time>2024-03-01T15:27:06Z</time>
      </trkpt>
      <trkpt lat="44.40535" lon="4.42369">
        <ele>210.9</ele>
        <time>2024-03-01T15:27:13Z</time>
      </trkpt>
      <trkpt lat="44.40532" lon="4.42394">
        <ele>214.1</ele>
        <time>2024-03-01T15:27:20Z</time>
      </trkpt>
      <trkpt lat="44.40528" lon="4.42421">
        <ele>217.1</ele>
        <time>2024-03-01T15:27:27Z</time>
      </trkpt>
      <trkpt lat="44.40515" lon="4.42444">
        <ele>219.6</ele>
        <time>2024-03-01T15:27:34Z</time>
      </trkpt>
      <trkpt lat="44.40503" lon="4.42464">
        <ele>222.4</ele>
        <time>2024-03-01T15:27:41Z</time>
      </trkpt>
      <trkpt lat="44.40497" lon="4.42488">
        <ele>225.9</ele>
        <time>2024-03-01T15:27:48Z</time>
      </trkpt>
      <trkpt lat="44.40482" lon="4.42501">
        <ele>229.6</ele>
        <time>2024-03-01T15:27:56Z</time>
      </trkpt>
      <trkpt lat="44.40466" lon="4.42514">
        <ele>233.4</ele>
        <time>2024-03-01T15:28:03Z</time>
      </trkpt>
      <trkpt lat="44.40461" lon="4.42516">
        <ele>234.5</ele>
        <time>2024-03-01T15:28:08Z</time>
      </trkpt>
      <trkpt lat="44.40465" lon="4.42513">
        <ele>233.7</ele>
        <time>2024-03-01T15:28:10Z</time>
      </trkpt>
      <trkpt lat="44.4048" lon="4.42498">
        <ele>229.7</ele>
        <time>2024-03-01T15:28:17Z</time>
      </trkpt>
      <trkpt lat="44.40499" lon="4.42486">
        <ele>225.4</ele>
        <time>2024-03-01T15:28:24Z</time>
      </trkpt>
      <trkpt lat="44.4051" lon="4.42465">
        <ele>221.8</ele>
        <time>2024-03-01T15:28:31Z</time>
      </trkpt>
      <trkpt lat="44.40521" lon="4.42443">
        <ele>219.2</ele>
        <time>2024-03-01T15:28:37Z</time>
      </trkpt>
      <trkpt lat="44.40532" lon="4.42422">
        <ele>216.9</ele>
        <time>2024-03-01T15:28:43Z</time>
      </trkpt>
      <trkpt lat="44.40535" lon="4.42396">
        <ele>214</ele>
        <time>2024-03-01T15:28:49Z</time>
      </trkpt>
      <trkpt lat="44.40535" lon="4.42369">
        <ele>210.6</ele>
        <time>2024-03-01T15:28:55Z</time>
      </trkpt>
      <trkpt lat="44.40539" lon="4.42344">
        <ele>207.5</ele>
        <time>2024-03-01T15:29:01Z</time>
      </trkpt>
      <trkpt lat="44.40542" lon="4.42315">
        <ele>203.7</ele>
        <time>2024-03-01T15:29:08Z</time>
      </trkpt>
      <trkpt lat="44.40536" lon="4.42288">
        <ele>199.7</ele>
        <time>2024-03-01T15:29:15Z</time>
      </trkpt>
      <trkpt lat="44.40523" lon="4.42269">
        <ele>195.7</ele>
        <time>2024-03-01T15:29:20Z</time>
      </trkpt>
      <trkpt lat="44.40507" lon="4.42252">
        <ele>192</ele>
        <time>2024-03-01T15:29:26Z</time>
      </trkpt>
      <trkpt lat="44.40493" lon="4.4223">
        <ele>188.1</ele>
        <time>2024-03-01T15:29:33Z</time>
      </trkpt>
      <trkpt lat="44.4049" lon="4.42205">
        <ele>185.8</ele>
        <time>2024-03-01T15:29:38Z</time>
      </trkpt>
      <trkpt lat="44.40491" lon="4.42175">
        <ele>183.2</ele>
        <time>2024-03-01T15:29:44Z</time>
      </trkpt>
      <trkpt lat="44.40486" lon="4.4215">
        <ele>180.6</ele>
        <time>2024-03-01T15:29:49Z</time>
      </trkpt>
      <trkpt lat="44.40481" lon="4.42126">
        <ele>177.4</ele>
        <time>2024-03-01T15:29:54Z</time>
      </trkpt>
      <trkpt lat="44.40477" lon="4.42096">
        <ele>173.7</ele>
        <time>2024-03-01T15:30:00Z</time>
      </trkpt>
      <trkpt lat="44.40471" lon="4.4207">
        <ele>170.8</ele>
        <time>2024-03-01T15:30:06Z</time>
      </trkpt>
      <trkpt lat="44.40464" lon="4.42045">
        <ele>168.2</ele>
        <time>2024-03-01T15:30:12Z</time>
      </trkpt>
      <trkpt lat="44.40455" lon="4.4202">
        <ele>165.7</ele>
        <time>2024-03-01T15:30:18Z</time>
      </trkpt>
      <trkpt lat="44.40446" lon="4.41994">
        <ele>163.4</ele>
        <time>2024-03-01T15:30:24Z</time>
      </trkpt>
      <trkpt lat="44.40439" lon="4.41967">
        <ele>161.3</ele>
        <time>2024-03-01T15:30:30Z</time>
      </trkpt>
      <trkpt lat="44.40433" lon="4.41942">
        <ele>159.4</ele>
        <time>2024-03-01T15:30:36Z</time>
      </trkpt>
      <trkpt lat="44.40426" lon="4.41918">
        <ele>157.6</ele>
        <time>2024-03-01T15:30:41Z</time>
      </trkpt>
      <trkpt lat="44.4042" lon="4.41893">
        <ele>155.6</ele>
        <time>2024-03-01T15:30:47Z</time>
      </trkpt>
      <trkpt lat="44.40415" lon="4.41864">
        <ele>153.7</ele>
        <time>2024-03-01T15:30:53Z</time>
      </trkpt>
      <trkpt lat="44.40409" lon="4.4184">
        <ele>151.9</ele>
        <time>2024-03-01T15:30:59Z</time>
      </trkpt>
      <trkpt lat="44.40402" lon="4.41816">
        <ele>150.1</ele>
        <time>2024-03-01T15:31:04Z</time>
      </trkpt>
      <trkpt lat="44.40395" lon="4.41789">
        <ele>148.7</ele>
        <time>2024-03-01T15:31:09Z</time>
      </trkpt>
      <trkpt lat="44.40393" lon="4.4176">
        <ele>147.8</ele>
        <time>2024-03-01T15:31:15Z</time>
      </trkpt>
      <trkpt lat="44.40401" lon="4.41734">
        <ele>145.4</ele>
        <time>2024-03-01T15:31:21Z</time>
      </trkpt>
      <trkpt lat="44.40416" lon="4.41713">
        <ele>142.9</ele>
        <time>2024-03-01T15:31:27Z</time>
      </trkpt>
      <trkpt lat="44.40433" lon="4.41696">
        <ele>140.9</ele>
        <time>2024-03-01T15:31:33Z</time>
      </trkpt>
      <trkpt lat="44.40449" lon="4.41681">
        <ele>139.2</ele>
        <time>2024-03-01T15:31:39Z</time>
      </trkpt>
      <trkpt lat="44.40464" lon="4.41664">
        <ele>137.3</ele>
        <time>2024-03-01T15:31:45Z</time>
      </trkpt>
      <trkpt lat="44.40477" lon="4.41647">
        <ele>134.6</ele>
        <time>2024-03-01T15:31:54Z</time>
      </trkpt>
      <trkpt lat="44.40474" lon="4.41623">
        <ele>124.5</ele>
        <time>2024-03-01T15:32:03Z</time>
      </trkpt>
      <trkpt lat="44.40463" lon="4.41603">
        <ele>115.3</ele>
        <time>2024-03-01T15:32:11Z</time>
      </trkpt>
      <trkpt lat="44.40443" lon="4.41607">
        <ele>112.6</ele>
        <time>2024-03-01T15:32:19Z</time>
      </trkpt>
      <trkpt lat="44.40425" lon="4.41608">
        <ele>110.1</ele>
        <time>2024-03-01T15:32:26Z</time>
      </trkpt>
      <trkpt lat="44.40405" lon="4.41607">
        <ele>107.7</ele>
        <time>2024-03-01T15:32:34Z</time>
      </trkpt>
      <trkpt lat="44.40396" lon="4.41608">
        <ele>106.7</ele>
        <time>2024-03-01T15:32:41Z</time>
      </trkpt>
      <trkpt lat="44.40396" lon="4.41607">
        <ele>106.7</ele>
        <time>2024-03-01T15:32:43Z</time>
      </trkpt>
      <trkpt lat="44.40397" lon="4.41612">
        <ele>106.7</ele>
        <time>2024-03-01T15:32:53Z</time>
      </trkpt>
      <trkpt lat="44.40418" lon="4.41612">
        <ele>109</ele>
        <time>2024-03-01T15:33:02Z</time>
      </trkpt>
      <trkpt lat="44.40436" lon="4.4161">
        <ele>111.4</ele>
        <time>2024-03-01T15:33:08Z</time>
      </trkpt>
      <trkpt lat="44.40454" lon="4.41606">
        <ele>113.9</ele>
        <time>2024-03-01T15:33:14Z</time>
      </trkpt>
      <trkpt lat="44.4047" lon="4.41611">
        <ele>116</ele>
        <time>2024-03-01T15:33:22Z</time>
      </trkpt>
      <trkpt lat="44.40477" lon="4.41632">
        <ele>123.6</ele>
        <time>2024-03-01T15:33:36Z</time>
      </trkpt>
      <trkpt lat="44.40479" lon="4.41635">
        <ele>126</ele>
        <time>2024-03-01T15:33:38Z</time>
      </trkpt>
      <trkpt lat="44.40476" lon="4.41661">
        <ele>134.5</ele>
        <time>2024-03-01T15:33:53Z</time>
      </trkpt>
      <trkpt lat="44.40463" lon="4.41679">
        <ele>137.4</ele>
        <time>2024-03-01T15:34:01Z</time>
      </trkpt>
      <trkpt lat="44.40448" lon="4.41696">
        <ele>139.5</ele>
        <time>2024-03-01T15:34:10Z</time>
      </trkpt>
      <trkpt lat="44.40431" lon="4.41707">
        <ele>141.2</ele>
        <time>2024-03-01T15:34:17Z</time>
      </trkpt>
      <trkpt lat="44.40416" lon="4.41724">
        <ele>143.4</ele>
        <time>2024-03-01T15:34:24Z</time>
      </trkpt>
      <trkpt lat="44.40404" lon="4.41743">
        <ele>145.8</ele>
        <time>2024-03-01T15:34:31Z</time>
      </trkpt>
      <trkpt lat="44.40399" lon="4.41765">
        <ele>147.8</ele>
        <time>2024-03-01T15:34:38Z</time>
      </trkpt>
      <trkpt lat="44.40398" lon="4.41768">
        <ele>148</ele>
        <time>2024-03-01T15:34:42Z</time>
      </trkpt>
      <trkpt lat="44.40399" lon="4.41795">
        <ele>149</ele>
        <time>2024-03-01T15:34:50Z</time>
      </trkpt>
      <trkpt lat="44.40408" lon="4.41821">
        <ele>150.6</ele>
        <time>2024-03-01T15:34:56Z</time>
      </trkpt>
      <trkpt lat="44.40417" lon="4.41843">
        <ele>152.3</ele>
        <time>2024-03-01T15:35:02Z</time>
      </trkpt>
      <trkpt lat="44.40425" lon="4.41869">
        <ele>154.2</ele>
        <time>2024-03-01T15:35:09Z</time>
      </trkpt>
      <trkpt lat="44.4043" lon="4.41894">
        <ele>156</ele>
        <time>2024-03-01T15:35:15Z</time>
      </trkpt>
      <trkpt lat="44.40437" lon="4.4192">
        <ele>158</ele>
        <time>2024-03-01T15:35:21Z</time>
      </trkpt>
      <trkpt lat="44.40446" lon="4.41943">
        <ele>159.8</ele>
        <time>2024-03-01T15:35:27Z</time>
      </trkpt>
      <trkpt lat="44.40453" lon="4.41967">
        <ele>161.7</ele>
        <time>2024-03-01T15:35:33Z</time>
      </trkpt>
      <trkpt lat="44.4046" lon="4.4199">
        <ele>163.6</ele>
        <time>2024-03-01T15:35:39Z</time>
      </trkpt>
      <trkpt lat="44.40468" lon="4.42014">
        <ele>165.7</ele>
        <time>2024-03-01T15:35:46Z</time>
      </trkpt>
      <trkpt lat="44.40474" lon="4.42041">
        <ele>168.1</ele>
        <time>2024-03-01T15:35:53Z</time>
      </trkpt>
      <trkpt lat="44.4048" lon="4.42065">
        <ele>170.5</ele>
        <time>2024-03-01T15:35:59Z</time>
      </trkpt>
      <trkpt lat="44.40484" lon="4.42094">
        <ele>173.5</ele>
        <time>2024-03-01T15:36:06Z</time>
      </trkpt>
      <trkpt lat="44.40488" lon="4.4212">
        <ele>176.7</ele>
        <time>2024-03-01T15:36:13Z</time>
      </trkpt>
      <trkpt lat="44.40495" lon="4.42145">
        <ele>179.9</ele>
        <time>2024-03-01T15:36:21Z</time>
      </trkpt>
      <trkpt lat="44.405" lon="4.4217">
        <ele>182.8</ele>
        <time>2024-03-01T15:36:29Z</time>
      </trkpt>
      <trkpt lat="44.40498" lon="4.42196">
        <ele>185</ele>
        <time>2024-03-01T15:36:36Z</time>
      </trkpt>
      <trkpt lat="44.40499" lon="4.42223">
        <ele>188.2</ele>
        <time>2024-03-01T15:36:44Z</time>
      </trkpt>
      <trkpt lat="44.40509" lon="4.42245">
        <ele>191.6</ele>
        <time>2024-03-01T15:36:55Z</time>
      </trkpt>
      <trkpt lat="44.40524" lon="4.42264">
        <ele>195.2</ele>
        <time>2024-03-01T15:37:05Z</time>
      </trkpt>
      <trkpt lat="44.40535" lon="4.42285">
        <ele>199.2</ele>
        <time>2024-03-01T15:37:14Z</time>
      </trkpt>
      <trkpt lat="44.40542" lon="4.4231">
        <ele>203.1</ele>
        <time>2024-03-01T15:37:23Z</time>
      </trkpt>
      <trkpt lat="44.40541" lon="4.42338">
        <ele>206.8</ele>
        <time>2024-03-01T15:37:32Z</time>
      </trkpt>
      <trkpt lat="44.40538" lon="4.42364">
        <ele>210.1</ele>
        <time>2024-03-01T15:37:41Z</time>
      </trkpt>
      <trkpt lat="44.40535" lon="4.4239">
        <ele>213.4</ele>
        <time>2024-03-01T15:37:49Z</time>
      </trkpt>
      <trkpt lat="44.40532" lon="4.42416">
        <ele>216.4</ele>
        <time>2024-03-01T15:37:57Z</time>
      </trkpt>
      <trkpt lat="44.40532" lon="4.4242">
        <ele>216.7</ele>
        <time>2024-03-01T15:37:58Z</time>
      </trkpt>
      <trkpt lat="44.40531" lon="4.42426">
        <ele>217.3</ele>
        <time>2024-03-01T15:38:00Z</time>
      </trkpt>
      <trkpt lat="44.40532" lon="4.42427">
        <ele>217.2</ele>
        <time>2024-03-01T15:38:02Z</time>
      </trkpt>
      <trkpt lat="44.40533" lon="4.42425">
        <ele>216.8</ele>
        <time>2024-03-01T15:38:03Z</time>
      </trkpt>
      <trkpt lat="44.40535" lon="4.42395">
        <ele>213.5</ele>
        <time>2024-03-01T15:38:08Z</time>
      </trkpt>
      <trkpt lat="44.40536" lon="4.42367">
        <ele>210</ele>
        <time>2024-03-01T15:38:12Z</time>
      </trkpt>
      <trkpt lat="44.40538" lon="4.42336">
        <ele>206.1</ele>
        <time>2024-03-01T15:38:16Z</time>
      </trkpt>
      <trkpt lat="44.40537" lon="4.42306">
        <ele>202.1</ele>
        <time>2024-03-01T15:38:20Z</time>
      </trkpt>
      <trkpt lat="44.40532" lon="4.42286">
        <ele>199.2</ele>
        <time>2024-03-01T15:38:23Z</time>
      </trkpt>
      <trkpt lat="44.40517" lon="4.42262">
        <ele>194.5</ele>
        <time>2024-03-01T15:38:27Z</time>
      </trkpt>
      <trkpt lat="44.40505" lon="4.42249">
        <ele>191.7</ele>
        <time>2024-03-01T15:38:30Z</time>
      </trkpt>
      <trkpt lat="44.40493" lon="4.42236">
        <ele>189</ele>
        <time>2024-03-01T15:38:33Z</time>
      </trkpt>
      <trkpt lat="44.40489" lon="4.42222">
        <ele>187.1</ele>
        <time>2024-03-01T15:38:35Z</time>
      </trkpt>
      <trkpt lat="44.40488" lon="4.42205">
        <ele>185.9</ele>
        <time>2024-03-01T15:38:37Z</time>
      </trkpt>
      <trkpt lat="44.4049" lon="4.42175">
        <ele>183.2</ele>
        <time>2024-03-01T15:38:41Z</time>
      </trkpt>
      <trkpt lat="44.40489" lon="4.42169">
        <ele>182.6</ele>
        <time>2024-03-01T15:38:42Z</time>
      </trkpt>
      <trkpt lat="44.40484" lon="4.4214">
        <ele>179.3</ele>
        <time>2024-03-01T15:38:46Z</time>
      </trkpt>
      <trkpt lat="44.40478" lon="4.42116">
        <ele>176.1</ele>
        <time>2024-03-01T15:38:49Z</time>
      </trkpt>
      <trkpt lat="44.40473" lon="4.42091">
        <ele>173.1</ele>
        <time>2024-03-01T15:38:52Z</time>
      </trkpt>
      <trkpt lat="44.40466" lon="4.42061">
        <ele>169.8</ele>
        <time>2024-03-01T15:38:56Z</time>
      </trkpt>
      <trkpt lat="44.40457" lon="4.42033">
        <ele>167</ele>
        <time>2024-03-01T15:39:00Z</time>
      </trkpt>
      <trkpt lat="44.40448" lon="4.42004">
        <ele>164.4</ele>
        <time>2024-03-01T15:39:04Z</time>
      </trkpt>
      <trkpt lat="44.4044" lon="4.41976">
        <ele>162.1</ele>
        <time>2024-03-01T15:39:08Z</time>
      </trkpt>
      <trkpt lat="44.40432" lon="4.41948">
        <ele>159.9</ele>
        <time>2024-03-01T15:39:12Z</time>
      </trkpt>
      <trkpt lat="44.40423" lon="4.41922">
        <ele>157.8</ele>
        <time>2024-03-01T15:39:16Z</time>
      </trkpt>
      <trkpt lat="44.40415" lon="4.41896">
        <ele>155.8</ele>
        <time>2024-03-01T15:39:20Z</time>
      </trkpt>
      <trkpt lat="44.4041" lon="4.41867">
        <ele>153.8</ele>
        <time>2024-03-01T15:39:24Z</time>
      </trkpt>
      <trkpt lat="44.40407" lon="4.41841">
        <ele>152</ele>
        <time>2024-03-01T15:39:28Z</time>
      </trkpt>
      <trkpt lat="44.40405" lon="4.41835">
        <ele>151.6</ele>
        <time>2024-03-01T15:39:29Z</time>
      </trkpt>
      <trkpt lat="44.40397" lon="4.41808">
        <ele>149.6</ele>
        <time>2024-03-01T15:39:33Z</time>
      </trkpt>
      <trkpt lat="44.40396" lon="4.41801">
        <ele>149.3</ele>
        <time>2024-03-01T15:39:34Z</time>
      </trkpt>
      <trkpt lat="44.40391" lon="4.41771">
        <ele>148.2</ele>
        <time>2024-03-01T15:39:38Z</time>
      </trkpt>
      <trkpt lat="44.40391" lon="4.41757">
        <ele>147.5</ele>
        <time>2024-03-01T15:39:40Z</time>
      </trkpt>
      <trkpt lat="44.40393" lon="4.41743">
        <ele>146.4</ele>
        <time>2024-03-01T15:39:42Z</time>
      </trkpt>
      <trkpt lat="44.404" lon="4.4173">
        <ele>145</ele>
        <time>2024-03-01T15:39:44Z</time>
      </trkpt>
      <trkpt lat="44.40414" lon="4.41713">
        <ele>142.9</ele>
        <time>2024-03-01T15:39:47Z</time>
      </trkpt>
      <trkpt lat="44.40427" lon="4.417">
        <ele>141.4</ele>
        <time>2024-03-01T15:39:50Z</time>
      </trkpt>
      <trkpt lat="44.40446" lon="4.41686">
        <ele>139.7</ele>
        <time>2024-03-01T15:39:54Z</time>
      </trkpt>
      <trkpt lat="44.40463" lon="4.41669">
        <ele>137.7</ele>
        <time>2024-03-01T15:39:58Z</time>
      </trkpt>
      <trkpt lat="44.4047" lon="4.41661">
        <ele>136.6</ele>
        <time>2024-03-01T15:40:00Z</time>
      </trkpt>
      <trkpt lat="44.40475" lon="4.41653">
        <ele>135.6</ele>
        <time>2024-03-01T15:40:02Z</time>
      </trkpt>
      <trkpt lat="44.40478" lon="4.41646">
        <ele>134.6</ele>
        <time>2024-03-01T15:40:04Z</time>
      </trkpt>
      <trkpt lat="44.40478" lon="4.41635">
        <ele>130.8</ele>
        <time>2024-03-01T15:40:06Z</time>
      </trkpt>
      <trkpt lat="44.40474" lon="4.41625">
        <ele>126.4</ele>
        <time>2024-03-01T15:40:08Z</time>
      </trkpt>
      <trkpt lat="44.40471" lon="4.41615">
        <ele>121</ele>
        <time>2024-03-01T15:40:10Z</time>
      </trkpt>
      <trkpt lat="44.40465" lon="4.41599">
        <ele>115.5</ele>
        <time>2024-03-01T15:40:13Z</time>
      </trkpt>
      <trkpt lat="44.40453" lon="4.416">
        <ele>114</ele>
        <time>2024-03-01T15:40:16Z</time>
      </trkpt>
      <trkpt lat="44.40438" lon="4.41605">
        <ele>112.1</ele>
        <time>2024-03-01T15:40:19Z</time>
      </trkpt>
      <trkpt lat="44.40416" lon="4.41607">
        <ele>109.2</ele>
        <time>2024-03-01T15:40:24Z</time>
      </trkpt>
      <trkpt lat="44.40404" lon="4.41607">
        <ele>107.9</ele>
        <time>2024-03-01T15:40:27Z</time>
      </trkpt>
      <trkpt lat="44.40391" lon="4.41608">
        <ele>106.5</ele>
        <time>2024-03-01T15:40:31Z</time>
      </trkpt>
      <trkpt lat="44.40385" lon="4.41607">
        <ele>105.9</ele>
        <time>2024-03-01T15:40:36Z</time>
      </trkpt>
      <trkpt lat="44.40386" lon="4.41609">
        <ele>105.7</ele>
        <time>2024-03-01T15:40:41Z</time>
      </trkpt>
      <trkpt lat="44.40394" lon="4.41613">
        <ele>106.4</ele>
        <time>2024-03-01T15:41:15Z</time>
      </trkpt>
      <trkpt lat="44.40412" lon="4.41609">
        <ele>108.4</ele>
        <time>2024-03-01T15:41:23Z</time>
      </trkpt>
      <trkpt lat="44.40432" lon="4.41608">
        <ele>110.8</ele>
        <time>2024-03-01T15:41:29Z</time>
      </trkpt>
      <trkpt lat="44.4045" lon="4.41604">
        <ele>113.3</ele>
        <time>2024-03-01T15:41:35Z</time>
      </trkpt>
      <trkpt lat="44.40466" lon="4.41609">
        <ele>115.6</ele>
        <time>2024-03-01T15:41:43Z</time>
      </trkpt>
      <trkpt lat="44.40476" lon="4.41631">
        <ele>124.4</ele>
        <time>2024-03-01T15:41:58Z</time>
      </trkpt>
      <trkpt lat="44.40479" lon="4.41656">
        <ele>134.5</ele>
        <time>2024-03-01T15:42:11Z</time>
      </trkpt>
      <trkpt lat="44.40467" lon="4.41676">
        <ele>137.4</ele>
        <time>2024-03-01T15:42:20Z</time>
      </trkpt>
      <trkpt lat="44.40451" lon="4.41693">
        <ele>139.5</ele>
        <time>2024-03-01T15:42:28Z</time>
      </trkpt>
      <trkpt lat="44.40434" lon="4.41707">
        <ele>141.3</ele>
        <time>2024-03-01T15:42:35Z</time>
      </trkpt>
      <trkpt lat="44.40419" lon="4.41724">
        <ele>143.4</ele>
        <time>2024-03-01T15:42:43Z</time>
      </trkpt>
      <trkpt lat="44.40406" lon="4.41741">
        <ele>145.8</ele>
        <time>2024-03-01T15:42:51Z</time>
      </trkpt>
      <trkpt lat="44.40398" lon="4.41766">
        <ele>148</ele>
        <time>2024-03-01T15:43:00Z</time>
      </trkpt>
      <trkpt lat="44.40399" lon="4.41795">
        <ele>149</ele>
        <time>2024-03-01T15:43:07Z</time>
      </trkpt>
      <trkpt lat="44.40404" lon="4.41819">
        <ele>150.3</ele>
        <time>2024-03-01T15:43:13Z</time>
      </trkpt>
      <trkpt lat="44.40413" lon="4.41842">
        <ele>152.1</ele>
        <time>2024-03-01T15:43:20Z</time>
      </trkpt>
      <trkpt lat="44.40419" lon="4.4187">
        <ele>154.1</ele>
        <time>2024-03-01T15:43:27Z</time>
      </trkpt>
      <trkpt lat="44.40426" lon="4.41894">
        <ele>155.8</ele>
        <time>2024-03-01T15:43:33Z</time>
      </trkpt>
      <trkpt lat="44.40433" lon="4.41917">
        <ele>157.7</ele>
        <time>2024-03-01T15:43:39Z</time>
      </trkpt>
      <trkpt lat="44.4044" lon="4.41944">
        <ele>159.7</ele>
        <time>2024-03-01T15:43:47Z</time>
      </trkpt>
      <trkpt lat="44.40448" lon="4.41967">
        <ele>161.5</ele>
        <time>2024-03-01T15:43:54Z</time>
      </trkpt>
      <trkpt lat="44.40456" lon="4.41993">
        <ele>163.6</ele>
        <time>2024-03-01T15:44:01Z</time>
      </trkpt>
      <trkpt lat="44.40464" lon="4.42017">
        <ele>165.7</ele>
        <time>2024-03-01T15:44:08Z</time>
      </trkpt>
      <trkpt lat="44.4047" lon="4.42044">
        <ele>168.1</ele>
        <time>2024-03-01T15:44:15Z</time>
      </trkpt>
      <trkpt lat="44.40478" lon="4.42066">
        <ele>170.5</ele>
        <time>2024-03-01T15:44:23Z</time>
      </trkpt>
      <trkpt lat="44.40485" lon="4.42091">
        <ele>173.2</ele>
        <time>2024-03-01T15:44:31Z</time>
      </trkpt>
      <trkpt lat="44.40491" lon="4.42117">
        <ele>176.4</ele>
        <time>2024-03-01T15:44:39Z</time>
      </trkpt>
      <trkpt lat="44.40497" lon="4.42143">
        <ele>179.9</ele>
        <time>2024-03-01T15:44:48Z</time>
      </trkpt>
      <trkpt lat="44.405" lon="4.4217">
        <ele>182.8</ele>
        <time>2024-03-01T15:44:57Z</time>
      </trkpt>
      <trkpt lat="44.40498" lon="4.42199">
        <ele>185.3</ele>
        <time>2024-03-01T15:45:05Z</time>
      </trkpt>
      <trkpt lat="44.40501" lon="4.42226">
        <ele>188.7</ele>
        <time>2024-03-01T15:45:13Z</time>
      </trkpt>
      <trkpt lat="44.40512" lon="4.42248">
        <ele>192.1</ele>
        <time>2024-03-01T15:45:23Z</time>
      </trkpt>
      <trkpt lat="44.40527" lon="4.42265">
        <ele>195.6</ele>
        <time>2024-03-01T15:45:33Z</time>
      </trkpt>
      <trkpt lat="44.4054" lon="4.42286">
        <ele>199.7</ele>
        <time>2024-03-01T15:45:44Z</time>
      </trkpt>
      <trkpt lat="44.40544" lon="4.42311">
        <ele>203.3</ele>
        <time>2024-03-01T15:45:53Z</time>
      </trkpt>
      <trkpt lat="44.40542" lon="4.42337">
        <ele>206.8</ele>
        <time>2024-03-01T15:46:02Z</time>
      </trkpt>
      <trkpt lat="44.40539" lon="4.42363">
        <ele>209.9</ele>
        <time>2024-03-01T15:46:11Z</time>
      </trkpt>
      <trkpt lat="44.40537" lon="4.42374">
        <ele>211.3</ele>
        <time>2024-03-01T15:46:15Z</time>
      </trkpt>
      <trkpt lat="44.40538" lon="4.42373">
        <ele>211.1</ele>
        <time>2024-03-01T15:46:17Z</time>
      </trkpt>
      <trkpt lat="44.40544" lon="4.42343">
        <ele>207.5</ele>
        <time>2024-03-01T15:46:23Z</time>
      </trkpt>
      <trkpt lat="44.40548" lon="4.42314">
        <ele>203.7</ele>
        <time>2024-03-01T15:46:28Z</time>
      </trkpt>
      <trkpt lat="44.40541" lon="4.42293">
        <ele>200.7</ele>
        <time>2024-03-01T15:46:31Z</time>
      </trkpt>
      <trkpt lat="44.40534" lon="4.42281">
        <ele>198.3</ele>
        <time>2024-03-01T15:46:33Z</time>
      </trkpt>
      <trkpt lat="44.40525" lon="4.4227">
        <ele>195.9</ele>
        <time>2024-03-01T15:46:35Z</time>
      </trkpt>
      <trkpt lat="44.40507" lon="4.42252">
        <ele>191.9</ele>
        <time>2024-03-01T15:46:39Z</time>
      </trkpt>
      <trkpt lat="44.40496" lon="4.42241">
        <ele>189.5</ele>
        <time>2024-03-01T15:46:42Z</time>
      </trkpt>
      <trkpt lat="44.4049" lon="4.4223">
        <ele>187.8</ele>
        <time>2024-03-01T15:46:44Z</time>
      </trkpt>
      <trkpt lat="44.40487" lon="4.42208">
        <ele>186.1</ele>
        <time>2024-03-01T15:46:47Z</time>
      </trkpt>
      <trkpt lat="44.40488" lon="4.4218">
        <ele>183.6</ele>
        <time>2024-03-01T15:46:51Z</time>
      </trkpt>
      <trkpt lat="44.40487" lon="4.42173">
        <ele>183</ele>
        <time>2024-03-01T15:46:52Z</time>
      </trkpt>
      <trkpt lat="44.40482" lon="4.42147">
        <ele>180.2</ele>
        <time>2024-03-01T15:46:56Z</time>
      </trkpt>
      <trkpt lat="44.40475" lon="4.42118">
        <ele>176.3</ele>
        <time>2024-03-01T15:47:00Z</time>
      </trkpt>
      <trkpt lat="44.4047" lon="4.42093">
        <ele>173.3</ele>
        <time>2024-03-01T15:47:03Z</time>
      </trkpt>
      <trkpt lat="44.40464" lon="4.42069">
        <ele>170.6</ele>
        <time>2024-03-01T15:47:06Z</time>
      </trkpt>
      <trkpt lat="44.40462" lon="4.42061">
        <ele>169.8</ele>
        <time>2024-03-01T15:47:07Z</time>
      </trkpt>
      <trkpt lat="44.40454" lon="4.42032">
        <ele>166.9</ele>
        <time>2024-03-01T15:47:11Z</time>
      </trkpt>
      <trkpt lat="44.40446" lon="4.42002">
        <ele>164.3</ele>
        <time>2024-03-01T15:47:15Z</time>
      </trkpt>
      <trkpt lat="44.40439" lon="4.41973">
        <ele>161.9</ele>
        <time>2024-03-01T15:47:19Z</time>
      </trkpt>
      <trkpt lat="44.4043" lon="4.41945">
        <ele>159.7</ele>
        <time>2024-03-01T15:47:23Z</time>
      </trkpt>
      <trkpt lat="44.40422" lon="4.41919">
        <ele>157.7</ele>
        <time>2024-03-01T15:47:27Z</time>
      </trkpt>
      <trkpt lat="44.40415" lon="4.41894">
        <ele>155.7</ele>
        <time>2024-03-01T15:47:31Z</time>
      </trkpt>
      <trkpt lat="44.4041" lon="4.41867">
        <ele>153.9</ele>
        <time>2024-03-01T15:47:35Z</time>
      </trkpt>
      <trkpt lat="44.40405" lon="4.41847">
        <ele>152.4</ele>
        <time>2024-03-01T15:47:38Z</time>
      </trkpt>
      <trkpt lat="44.40397" lon="4.41821">
        <ele>150.4</ele>
        <time>2024-03-01T15:47:42Z</time>
      </trkpt>
      <trkpt lat="44.40389" lon="4.41798">
        <ele>149</ele>
        <time>2024-03-01T15:47:45Z</time>
      </trkpt>
      <trkpt lat="44.40388" lon="4.4179">
        <ele>148.8</ele>
        <time>2024-03-01T15:47:46Z</time>
      </trkpt>
      <trkpt lat="44.40386" lon="4.41769">
        <ele>148.1</ele>
        <time>2024-03-01T15:47:49Z</time>
      </trkpt>
      <trkpt lat="44.40387" lon="4.41755">
        <ele>147.3</ele>
        <time>2024-03-01T15:47:51Z</time>
      </trkpt>
      <trkpt lat="44.40391" lon="4.4174">
        <ele>146</ele>
        <time>2024-03-01T15:47:53Z</time>
      </trkpt>
      <trkpt lat="44.40398" lon="4.41727">
        <ele>144.5</ele>
        <time>2024-03-01T15:47:55Z</time>
      </trkpt>
      <trkpt lat="44.40416" lon="4.41707">
        <ele>142.1</ele>
        <time>2024-03-01T15:47:59Z</time>
      </trkpt>
      <trkpt lat="44.40433" lon="4.4169">
        <ele>140.3</ele>
        <time>2024-03-01T15:48:03Z</time>
      </trkpt>
      <trkpt lat="44.4045" lon="4.41675">
        <ele>138.4</ele>
        <time>2024-03-01T15:48:07Z</time>
      </trkpt>
      <trkpt lat="44.40468" lon="4.4166">
        <ele>135.9</ele>
        <time>2024-03-01T15:48:11Z</time>
      </trkpt>
      <trkpt lat="44.40471" lon="4.41655">
        <ele>134.4</ele>
        <time>2024-03-01T15:48:12Z</time>
      </trkpt>
      <trkpt lat="44.40475" lon="4.41646">
        <ele>131</ele>
        <time>2024-03-01T15:48:14Z</time>
      </trkpt>
      <trkpt lat="44.40476" lon="4.41636">
        <ele>127.3</ele>
        <time>2024-03-01T15:48:16Z</time>
      </trkpt>
      <trkpt lat="44.40472" lon="4.41626">
        <ele>123.8</ele>
        <time>2024-03-01T15:48:18Z</time>
      </trkpt>
      <trkpt lat="44.40468" lon="4.41617">
        <ele>119.9</ele>
        <time>2024-03-01T15:48:20Z</time>
      </trkpt>
      <trkpt lat="44.40462" lon="4.41604">
        <ele>115.2</ele>
        <time>2024-03-01T15:48:23Z</time>
      </trkpt>
      <trkpt lat="44.40457" lon="4.41601">
        <ele>114.6</ele>
        <time>2024-03-01T15:48:25Z</time>
      </trkpt>
      <trkpt lat="44.40439" lon="4.41607">
        <ele>112.3</ele>
        <time>2024-03-01T15:48:30Z</time>
      </trkpt>
      <trkpt lat="44.40419" lon="4.41609">
        <ele>110</ele>
        <time>2024-03-01T15:48:35Z</time>
      </trkpt>
      <trkpt lat="44.40401" lon="4.4161">
        <ele>108.1</ele>
        <time>2024-03-01T15:48:40Z</time>
      </trkpt>
      <trkpt lat="44.40392" lon="4.41611">
        <ele>107.3</ele>
        <time>2024-03-01T15:48:44Z</time>
      </trkpt>
      <trkpt lat="44.40391" lon="4.41607">
        <ele>107.1</ele>
        <time>2024-03-01T15:48:48Z</time>
      </trkpt>
      <trkpt lat="44.40396" lon="4.41605">
        <ele>106.7</ele>
        <time>2024-03-01T15:48:51Z</time>
      </trkpt>
      <trkpt lat="44.40397" lon="4.41603">
        <ele>106.8</ele>
        <time>2024-03-01T15:48:55Z</time>
      </trkpt>
      <trkpt lat="44.40393" lon="4.4161">
        <ele>107.3</ele>
        <time>2024-03-01T15:49:05Z</time>
      </trkpt>
      <trkpt lat="44.40393" lon="4.41614">
        <ele>107.6</ele>
        <time>2024-03-01T15:50:11Z</time>
      </trkpt>
      <trkpt lat="44.40394" lon="4.41614">
        <ele>107.7</ele>
        <time>2024-03-01T15:50:13Z</time>
      </trkpt>
      <trkpt lat="44.40416" lon="4.41614">
        <ele>109.8</ele>
        <time>2024-03-01T15:50:21Z</time>
      </trkpt>
      <trkpt lat="44.40436" lon="4.41612">
        <ele>112</ele>
        <time>2024-03-01T15:50:26Z</time>
      </trkpt>
      <trkpt lat="44.40454" lon="4.41608">
        <ele>114.1</ele>
        <time>2024-03-01T15:50:31Z</time>
      </trkpt>
      <trkpt lat="44.40458" lon="4.41608">
        <ele>114.6</ele>
        <time>2024-03-01T15:50:32Z</time>
      </trkpt>
      <trkpt lat="44.40473" lon="4.41618">
        <ele>116.4</ele>
        <time>2024-03-01T15:50:39Z</time>
      </trkpt>
      <trkpt lat="44.40481" lon="4.41642">
        <ele>125.6</ele>
        <time>2024-03-01T15:50:52Z</time>
      </trkpt>
      <trkpt lat="44.40478" lon="4.41667">
        <ele>135.1</ele>
        <time>2024-03-01T15:51:04Z</time>
      </trkpt>
      <trkpt lat="44.40465" lon="4.41685">
        <ele>137.8</ele>
        <time>2024-03-01T15:51:12Z</time>
      </trkpt>
      <trkpt lat="44.40448" lon="4.41701">
        <ele>139.8</ele>
        <time>2024-03-01T15:51:19Z</time>
      </trkpt>
      <trkpt lat="44.40431" lon="4.41713">
        <ele>141.5</ele>
        <time>2024-03-01T15:51:25Z</time>
      </trkpt>
      <trkpt lat="44.40416" lon="4.41728">
        <ele>143.4</ele>
        <time>2024-03-01T15:51:31Z</time>
      </trkpt>
      <trkpt lat="44.40403" lon="4.4175">
        <ele>146</ele>
        <time>2024-03-01T15:51:38Z</time>
      </trkpt>
      <trkpt lat="44.404" lon="4.41775">
        <ele>148</ele>
        <time>2024-03-01T15:51:44Z</time>
      </trkpt>
      <trkpt lat="44.40402" lon="4.41805">
        <ele>149.5</ele>
        <time>2024-03-01T15:51:50Z</time>
      </trkpt>
      <trkpt lat="44.40409" lon="4.41829">
        <ele>151.1</ele>
        <time>2024-03-01T15:51:56Z</time>
      </trkpt>
      <trkpt lat="44.40417" lon="4.41853">
        <ele>152.9</ele>
        <time>2024-03-01T15:52:02Z</time>
      </trkpt>
      <trkpt lat="44.40424" lon="4.41879">
        <ele>154.8</ele>
        <time>2024-03-01T15:52:08Z</time>
      </trkpt>
      <trkpt lat="44.40431" lon="4.41906">
        <ele>156.8</ele>
        <time>2024-03-01T15:52:14Z</time>
      </trkpt>
      <trkpt lat="44.40438" lon="4.41931">
        <ele>158.7</ele>
        <time>2024-03-01T15:52:20Z</time>
      </trkpt>
      <trkpt lat="44.40444" lon="4.41956">
        <ele>160.6</ele>
        <time>2024-03-01T15:52:26Z</time>
      </trkpt>
      <trkpt lat="44.40451" lon="4.41982">
        <ele>162.5</ele>
        <time>2024-03-01T15:52:32Z</time>
      </trkpt>
      <trkpt lat="44.40459" lon="4.42007">
        <ele>164.7</ele>
        <time>2024-03-01T15:52:39Z</time>
      </trkpt>
      <trkpt lat="44.40466" lon="4.42032">
        <ele>166.8</ele>
        <time>2024-03-01T15:52:45Z</time>
      </trkpt>
      <trkpt lat="44.40473" lon="4.42058">
        <ele>169.3</ele>
        <time>2024-03-01T15:52:52Z</time>
      </trkpt>
      <trkpt lat="44.40479" lon="4.42085">
        <ele>172.1</ele>
        <time>2024-03-01T15:52:59Z</time>
      </trkpt>
      <trkpt lat="44.40485" lon="4.42111">
        <ele>175.2</ele>
        <time>2024-03-01T15:53:06Z</time>
      </trkpt>
      <trkpt lat="44.40493" lon="4.42136">
        <ele>178.5</ele>
        <time>2024-03-01T15:53:14Z</time>
      </trkpt>
      <trkpt lat="44.405" lon="4.42162">
        <ele>181.8</ele>
        <time>2024-03-01T15:53:21Z</time>
      </trkpt>
      <trkpt lat="44.40501" lon="4.42191">
        <ele>184.3</ele>
        <time>2024-03-01T15:53:28Z</time>
      </trkpt>
      <trkpt lat="44.40501" lon="4.42217">
        <ele>186.7</ele>
        <time>2024-03-01T15:53:34Z</time>
      </trkpt>
      <trkpt lat="44.40507" lon="4.4224">
        <ele>190.9</ele>
        <time>2024-03-01T15:53:42Z</time>
      </trkpt>
      <trkpt lat="44.4052" lon="4.42259">
        <ele>194.1</ele>
        <time>2024-03-01T15:53:51Z</time>
      </trkpt>
      <trkpt lat="44.40534" lon="4.42274">
        <ele>197.5</ele>
        <time>2024-03-01T15:54:00Z</time>
      </trkpt>
      <trkpt lat="44.40542" lon="4.42298">
        <ele>201.3</ele>
        <time>2024-03-01T15:54:11Z</time>
      </trkpt>
      <trkpt lat="44.40542" lon="4.42325">
        <ele>204.8</ele>
        <time>2024-03-01T15:54:19Z</time>
      </trkpt>
      <trkpt lat="44.40539" lon="4.42353">
        <ele>208.3</ele>
        <time>2024-03-01T15:54:26Z</time>
      </trkpt>
      <trkpt lat="44.40538" lon="4.4238">
        <ele>211.4</ele>
        <time>2024-03-01T15:54:34Z</time>
      </trkpt>
      <trkpt lat="44.40537" lon="4.42408">
        <ele>214.7</ele>
        <time>2024-03-01T15:54:42Z</time>
      </trkpt>
      <trkpt lat="44.40534" lon="4.42433">
        <ele>217.3</ele>
        <time>2024-03-01T15:54:49Z</time>
      </trkpt>
      <trkpt lat="44.4052" lon="4.42451">
        <ele>219.4</ele>
        <time>2024-03-01T15:54:56Z</time>
      </trkpt>
      <trkpt lat="44.40509" lon="4.42472">
        <ele>221.9</ele>
        <time>2024-03-01T15:55:03Z</time>
      </trkpt>
      <trkpt lat="44.40499" lon="4.42495">
        <ele>225.4</ele>
        <time>2024-03-01T15:55:11Z</time>
      </trkpt>
      <trkpt lat="44.40491" lon="4.42499">
        <ele>227.1</ele>
        <time>2024-03-01T15:55:15Z</time>
      </trkpt>
      <trkpt lat="44.40488" lon="4.42499">
        <ele>227.5</ele>
        <time>2024-03-01T15:55:17Z</time>
      </trkpt>
      <trkpt lat="44.405" lon="4.4249">
        <ele>224.9</ele>
        <time>2024-03-01T15:55:22Z</time>
      </trkpt>
      <trkpt lat="44.40509" lon="4.42461">
        <ele>220.9</ele>
        <time>2024-03-01T15:55:27Z</time>
      </trkpt>
      <trkpt lat="44.40513" lon="4.42455">
        <ele>220.2</ele>
        <time>2024-03-01T15:55:28Z</time>
      </trkpt>
      <trkpt lat="44.40525" lon="4.42434">
        <ele>217.9</ele>
        <time>2024-03-01T15:55:32Z</time>
      </trkpt>
      <trkpt lat="44.4053" lon="4.42422">
        <ele>216.7</ele>
        <time>2024-03-01T15:55:34Z</time>
      </trkpt>
      <trkpt lat="44.40534" lon="4.42396">
        <ele>213.8</ele>
        <time>2024-03-01T15:55:38Z</time>
      </trkpt>
      <trkpt lat="44.40537" lon="4.42368">
        <ele>210.4</ele>
        <time>2024-03-01T15:55:42Z</time>
      </trkpt>
      <trkpt lat="44.40539" lon="4.42339">
        <ele>206.9</ele>
        <time>2024-03-01T15:55:46Z</time>
      </trkpt>
      <trkpt lat="44.4054" lon="4.42332">
        <ele>206</ele>
        <time>2024-03-01T15:55:47Z</time>
      </trkpt>
      <trkpt lat="44.40542" lon="4.42312">
        <ele>203.3</ele>
        <time>2024-03-01T15:55:50Z</time>
      </trkpt>
      <trkpt lat="44.4054" lon="4.42298">
        <ele>201.4</ele>
        <time>2024-03-01T15:55:52Z</time>
      </trkpt>
      <trkpt lat="44.40531" lon="4.42279">
        <ele>198</ele>
        <time>2024-03-01T15:55:55Z</time>
      </trkpt>
      <trkpt lat="44.40517" lon="4.42262">
        <ele>194.3</ele>
        <time>2024-03-01T15:55:58Z</time>
      </trkpt>
      <trkpt lat="44.40512" lon="4.42258">
        <ele>193.3</ele>
        <time>2024-03-01T15:55:59Z</time>
      </trkpt>
      <trkpt lat="44.40494" lon="4.42238">
        <ele>189.2</ele>
        <time>2024-03-01T15:56:03Z</time>
      </trkpt>
      <trkpt lat="44.40489" lon="4.42222">
        <ele>187.1</ele>
        <time>2024-03-01T15:56:05Z</time>
      </trkpt>
      <trkpt lat="44.40487" lon="4.42199">
        <ele>185</ele>
        <time>2024-03-01T15:56:08Z</time>
      </trkpt>
      <trkpt lat="44.40488" lon="4.42177">
        <ele>183.2</ele>
        <time>2024-03-01T15:56:11Z</time>
      </trkpt>
      <trkpt lat="44.40483" lon="4.42149">
        <ele>180.2</ele>
        <time>2024-03-01T15:56:15Z</time>
      </trkpt>
      <trkpt lat="44.40478" lon="4.42124">
        <ele>177</ele>
        <time>2024-03-01T15:56:18Z</time>
      </trkpt>
      <trkpt lat="44.40474" lon="4.42099">
        <ele>174</ele>
        <time>2024-03-01T15:56:21Z</time>
      </trkpt>
      <trkpt lat="44.40467" lon="4.42069">
        <ele>170.6</ele>
        <time>2024-03-01T15:56:25Z</time>
      </trkpt>
      <trkpt lat="44.40457" lon="4.42041">
        <ele>167.6</ele>
        <time>2024-03-01T15:56:29Z</time>
      </trkpt>
      <trkpt lat="44.4045" lon="4.42017">
        <ele>165.5</ele>
        <time>2024-03-01T15:56:32Z</time>
      </trkpt>
      <trkpt lat="44.40441" lon="4.41993">
        <ele>163.4</ele>
        <time>2024-03-01T15:56:35Z</time>
      </trkpt>
      <trkpt lat="44.40434" lon="4.4197">
        <ele>161.5</ele>
        <time>2024-03-01T15:56:38Z</time>
      </trkpt>
      <trkpt lat="44.40425" lon="4.41939">
        <ele>159.2</ele>
        <time>2024-03-01T15:56:42Z</time>
      </trkpt>
      <trkpt lat="44.40415" lon="4.41911">
        <ele>157</ele>
        <time>2024-03-01T15:56:46Z</time>
      </trkpt>
      <trkpt lat="44.40412" lon="4.41897">
        <ele>155.9</ele>
        <time>2024-03-01T15:56:48Z</time>
      </trkpt>
      <trkpt lat="44.40408" lon="4.4187">
        <ele>154.1</ele>
        <time>2024-03-01T15:56:52Z</time>
      </trkpt>
      <trkpt lat="44.40404" lon="4.41843">
        <ele>152.2</ele>
        <time>2024-03-01T15:56:56Z</time>
      </trkpt>
      <trkpt lat="44.40394" lon="4.41816">
        <ele>150.1</ele>
        <time>2024-03-01T15:57:00Z</time>
      </trkpt>
      <trkpt lat="44.4039" lon="4.41801">
        <ele>149.3</ele>
        <time>2024-03-01T15:57:02Z</time>
      </trkpt>
      <trkpt lat="44.40389" lon="4.41786">
        <ele>148.7</ele>
        <time>2024-03-01T15:57:05Z</time>
      </trkpt>
      <trkpt lat="44.40392" lon="4.41781">
        <ele>148.5</ele>
        <time>2024-03-01T15:57:08Z</time>
      </trkpt>
      <trkpt lat="44.40394" lon="4.41756">
        <ele>147.5</ele>
        <time>2024-03-01T15:57:13Z</time>
      </trkpt>
      <trkpt lat="44.40399" lon="4.41742">
        <ele>146.3</ele>
        <time>2024-03-01T15:57:15Z</time>
      </trkpt>
      <trkpt lat="44.40411" lon="4.41725">
        <ele>144.1</ele>
        <time>2024-03-01T15:57:18Z</time>
      </trkpt>
      <trkpt lat="44.40427" lon="4.4171">
        <ele>142.1</ele>
        <time>2024-03-01T15:57:21Z</time>
      </trkpt>
      <trkpt lat="44.40443" lon="4.41697">
        <ele>140.4</ele>
        <time>2024-03-01T15:57:24Z</time>
      </trkpt>
      <trkpt lat="44.40462" lon="4.41678">
        <ele>138.3</ele>
        <time>2024-03-01T15:57:28Z</time>
      </trkpt>
      <trkpt lat="44.40474" lon="4.41664">
        <ele>136.4</ele>
        <time>2024-03-01T15:57:31Z</time>
      </trkpt>
      <trkpt lat="44.4048" lon="4.4165">
        <ele>134.6</ele>
        <time>2024-03-01T15:57:34Z</time>
      </trkpt>
      <trkpt lat="44.4048" lon="4.41633">
        <ele>127.1</ele>
        <time>2024-03-01T15:57:37Z</time>
      </trkpt>
      <trkpt lat="44.40469" lon="4.41606">
        <ele>116.1</ele>
        <time>2024-03-01T15:57:42Z</time>
      </trkpt>
      <trkpt lat="44.40464" lon="4.41601">
        <ele>115.3</ele>
        <time>2024-03-01T15:57:44Z</time>
      </trkpt>
      <trkpt lat="44.40442" lon="4.41607">
        <ele>112.4</ele>
        <time>2024-03-01T15:57:49Z</time>
      </trkpt>
      <trkpt lat="44.40423" lon="4.41606">
        <ele>109.7</ele>
        <time>2024-03-01T15:57:53Z</time>
      </trkpt>
      <trkpt lat="44.40402" lon="4.41605">
        <ele>107.3</ele>
        <time>2024-03-01T15:57:58Z</time>
      </trkpt>
      <trkpt lat="44.40399" lon="4.41605">
        <ele>107</ele>
        <time>2024-03-01T15:57:59Z</time>
      </trkpt>
      <trkpt lat="44.40393" lon="4.41602">
        <ele>106.4</ele>
        <time>2024-03-01T15:58:01Z</time>
      </trkpt>
      <trkpt lat="44.40392" lon="4.41605">
        <ele>105.4</ele>
        <time>2024-03-01T15:58:37Z</time>
      </trkpt>
      <trkpt lat="44.40395" lon="4.41609">
        <ele>105.4</ele>
        <time>2024-03-01T15:58:50Z</time>
      </trkpt>
      <trkpt lat="44.40397" lon="4.41601">
        <ele>105.1</ele>
        <time>2024-03-01T16:03:28Z</time>
      </trkpt>
      <trkpt lat="44.40398" lon="4.41597">
        <ele>105</ele>
        <time>2024-03-01T16:03:30Z</time>
      </trkpt>
      <trkpt lat="44.40411" lon="4.41581">
        <ele>104.4</ele>
        <time>2024-03-01T16:03:39Z</time>
      </trkpt>
      <trkpt lat="44.40426" lon="4.41564">
        <ele>104.2</ele>
        <time>2024-03-01T16:03:47Z</time>
      </trkpt>
      <trkpt lat="44.40433" lon="4.41539">
        <ele>104</ele>
        <time>2024-03-01T16:03:55Z</time>
      </trkpt>
      <trkpt lat="44.40431" lon="4.41512">
        <ele>104</ele>
        <time>2024-03-01T16:04:03Z</time>
      </trkpt>
      <trkpt lat="44.40422" lon="4.41489">
        <ele>103.9</ele>
        <time>2024-03-01T16:04:12Z</time>
      </trkpt>
      <trkpt lat="44.40412" lon="4.41468">
        <ele>103.8</ele>
        <time>2024-03-01T16:04:19Z</time>
      </trkpt>
      <trkpt lat="44.40402" lon="4.41444">
        <ele>103.8</ele>
        <time>2024-03-01T16:04:27Z</time>
      </trkpt>
      <trkpt lat="44.40393" lon="4.41422">
        <ele>103.8</ele>
        <time>2024-03-01T16:04:35Z</time>
      </trkpt>
      <trkpt lat="44.40384" lon="4.414">
        <ele>104</ele>
        <time>2024-03-01T16:04:43Z</time>
      </trkpt>
      <trkpt lat="44.40375" lon="4.41374">
        <ele>104.2</ele>
        <time>2024-03-01T16:04:52Z</time>
      </trkpt>
      <trkpt lat="44.40373" lon="4.41363">
        <ele>104.2</ele>
        <time>2024-03-01T16:04:57Z</time>
      </trkpt>
      <trkpt lat="44.40371" lon="4.41364">
        <ele>103.7</ele>
        <time>2024-03-01T16:05:00Z</time>
      </trkpt>
      <trkpt lat="44.4036" lon="4.41384">
        <ele>102.8</ele>
        <time>2024-03-01T16:05:10Z</time>
      </trkpt>
      <trkpt lat="44.40346" lon="4.414">
        <ele>101.8</ele>
        <time>2024-03-01T16:05:18Z</time>
      </trkpt>
      <trkpt lat="44.40343" lon="4.41404">
        <ele>101.5</ele>
        <time>2024-03-01T16:05:20Z</time>
      </trkpt>
      <trkpt lat="44.40344" lon="4.4141">
        <ele>101.1</ele>
        <time>2024-03-01T16:05:22Z</time>
      </trkpt>
      <trkpt lat="44.40362" lon="4.41407">
        <ele>99.2</ele>
        <time>2024-03-01T16:05:29Z</time>
      </trkpt>
      <trkpt lat="44.40363" lon="4.41406">
        <ele>99</ele>
        <time>2024-03-01T16:05:30Z</time>
      </trkpt>
      <trkpt lat="44.40365" lon="4.4141">
        <ele>98.7</ele>
        <time>2024-03-01T16:05:32Z</time>
      </trkpt>
      <trkpt lat="44.40348" lon="4.41425">
        <ele>96.9</ele>
        <time>2024-03-01T16:05:40Z</time>
      </trkpt>
      <trkpt lat="44.40331" lon="4.41437">
        <ele>96.2</ele>
        <time>2024-03-01T16:05:47Z</time>
      </trkpt>
      <trkpt lat="44.40313" lon="4.41449">
        <ele>96.1</ele>
        <time>2024-03-01T16:05:55Z</time>
      </trkpt>
      <trkpt lat="44.40294" lon="4.41453">
        <ele>96.2</ele>
        <time>2024-03-01T16:06:04Z</time>
      </trkpt>
      <trkpt lat="44.40276" lon="4.41465">
        <ele>96.4</ele>
        <time>2024-03-01T16:06:13Z</time>
      </trkpt>
      <trkpt lat="44.40257" lon="4.41474">
        <ele>96.5</ele>
        <time>2024-03-01T16:06:21Z</time>
      </trkpt>
      <trkpt lat="44.40242" lon="4.41488">
        <ele>96.6</ele>
        <time>2024-03-01T16:06:28Z</time>
      </trkpt>
      <trkpt lat="44.40225" lon="4.41487">
        <ele>96.9</ele>
        <time>2024-03-01T16:06:35Z</time>
      </trkpt>
      <trkpt lat="44.40208" lon="4.41497">
        <ele>97.2</ele>
        <time>2024-03-01T16:06:42Z</time>
      </trkpt>
      <trkpt lat="44.40188" lon="4.41493">
        <ele>97.5</ele>
        <time>2024-03-01T16:06:50Z</time>
      </trkpt>
      <trkpt lat="44.40172" lon="4.41505">
        <ele>97.5</ele>
        <time>2024-03-01T16:06:57Z</time>
      </trkpt>
      <trkpt lat="44.40152" lon="4.41512">
        <ele>97.5</ele>
        <time>2024-03-01T16:07:05Z</time>
      </trkpt>
      <trkpt lat="44.40134" lon="4.41519">
        <ele>97.4</ele>
        <time>2024-03-01T16:07:13Z</time>
      </trkpt>
      <trkpt lat="44.40116" lon="4.41525">
        <ele>97.4</ele>
        <time>2024-03-01T16:07:21Z</time>
      </trkpt>
      <trkpt lat="44.40097" lon="4.41535">
        <ele>97.4</ele>
        <time>2024-03-01T16:07:28Z</time>
      </trkpt>
      <trkpt lat="44.40079" lon="4.41545">
        <ele>97.5</ele>
        <time>2024-03-01T16:07:35Z</time>
      </trkpt>
      <trkpt lat="44.40059" lon="4.41548">
        <ele>97.7</ele>
        <time>2024-03-01T16:07:43Z</time>
      </trkpt>
      <trkpt lat="44.4004" lon="4.41552">
        <ele>97.8</ele>
        <time>2024-03-01T16:07:51Z</time>
      </trkpt>
      <trkpt lat="44.40021" lon="4.41559">
        <ele>98.2</ele>
        <time>2024-03-01T16:07:59Z</time>
      </trkpt>
      <trkpt lat="44.40002" lon="4.41565">
        <ele>98.9</ele>
        <time>2024-03-01T16:08:07Z</time>
      </trkpt>
      <trkpt lat="44.39985" lon="4.4157">
        <ele>99.7</ele>
        <time>2024-03-01T16:08:16Z</time>
      </trkpt>
      <trkpt lat="44.39972" lon="4.41588">
        <ele>99.8</ele>
        <time>2024-03-01T16:08:22Z</time>
      </trkpt>
      <trkpt lat="44.39962" lon="4.4161">
        <ele>99</ele>
        <time>2024-03-01T16:08:29Z</time>
      </trkpt>
      <trkpt lat="44.39952" lon="4.41632">
        <ele>97.5</ele>
        <time>2024-03-01T16:08:36Z</time>
      </trkpt>
      <trkpt lat="44.3994" lon="4.41652">
        <ele>96.2</ele>
        <time>2024-03-01T16:08:43Z</time>
      </trkpt>
      <trkpt lat="44.39925" lon="4.41672">
        <ele>95.4</ele>
        <time>2024-03-01T16:08:50Z</time>
      </trkpt>
      <trkpt lat="44.39912" lon="4.41689">
        <ele>94.7</ele>
        <time>2024-03-01T16:08:57Z</time>
      </trkpt>
      <trkpt lat="44.39894" lon="4.41695">
        <ele>94.1</ele>
        <time>2024-03-01T16:09:04Z</time>
      </trkpt>
      <trkpt lat="44.39876" lon="4.41699">
        <ele>93.9</ele>
        <time>2024-03-01T16:09:11Z</time>
      </trkpt>
      <trkpt lat="44.39858" lon="4.41705">
        <ele>94.1</ele>
        <time>2024-03-01T16:09:18Z</time>
      </trkpt>
      <trkpt lat="44.39839" lon="4.41712">
        <ele>94.3</ele>
        <time>2024-03-01T16:09:25Z</time>
      </trkpt>
      <trkpt lat="44.39821" lon="4.41712">
        <ele>94.4</ele>
        <time>2024-03-01T16:09:32Z</time>
      </trkpt>
      <trkpt lat="44.398" lon="4.4171">
        <ele>94.4</ele>
        <time>2024-03-01T16:09:39Z</time>
      </trkpt>
      <trkpt lat="44.39781" lon="4.41701">
        <ele>94.2</ele>
        <time>2024-03-01T16:09:46Z</time>
      </trkpt>
      <trkpt lat="44.39765" lon="4.41688">
        <ele>94.1</ele>
        <time>2024-03-01T16:09:53Z</time>
      </trkpt>
      <trkpt lat="44.39746" lon="4.41677">
        <ele>93.6</ele>
        <time>2024-03-01T16:10:00Z</time>
      </trkpt>
      <trkpt lat="44.39736" lon="4.41657">
        <ele>92.9</ele>
        <time>2024-03-01T16:10:07Z</time>
      </trkpt>
      <trkpt lat="44.39726" lon="4.41634">
        <ele>92.7</ele>
        <time>2024-03-01T16:10:15Z</time>
      </trkpt>
      <trkpt lat="44.39714" lon="4.41615">
        <ele>92.5</ele>
        <time>2024-03-01T16:10:22Z</time>
      </trkpt>
      <trkpt lat="44.3971" lon="4.41604">
        <ele>92.2</ele>
        <time>2024-03-01T16:10:26Z</time>
      </trkpt>
      <trkpt lat="44.39704" lon="4.41602">
        <ele>92</ele>
        <time>2024-03-01T16:10:29Z</time>
      </trkpt>
      <trkpt lat="44.39702" lon="4.41578">
        <ele>91.7</ele>
        <time>2024-03-01T16:10:36Z</time>
      </trkpt>
      <trkpt lat="44.39702" lon="4.41553">
        <ele>91.5</ele>
        <time>2024-03-01T16:10:43Z</time>
      </trkpt>
      <trkpt lat="44.39708" lon="4.41533">
        <ele>91.4</ele>
        <time>2024-03-01T16:10:54Z</time>
      </trkpt>
      <trkpt lat="44.39706" lon="4.41538">
        <ele>91.4</ele>
        <time>2024-03-01T16:10:58Z</time>
      </trkpt>
      <trkpt lat="44.39704" lon="4.41551">
        <ele>91.5</ele>
        <time>2024-03-01T16:12:15Z</time>
      </trkpt>
      <trkpt lat="44.3971" lon="4.41534">
        <ele>91.7</ele>
        <time>2024-03-01T16:12:24Z</time>
      </trkpt>
      <trkpt lat="44.39708" lon="4.41527">
        <ele>91.8</ele>
        <time>2024-03-01T16:12:27Z</time>
      </trkpt>
      <trkpt lat="44.3971" lon="4.41502">
        <ele>92</ele>
        <time>2024-03-01T16:12:37Z</time>
      </trkpt>
      <trkpt lat="44.39709" lon="4.41476">
        <ele>92.5</ele>
        <time>2024-03-01T16:12:47Z</time>
      </trkpt>
      <trkpt lat="44.39706" lon="4.41462">
        <ele>92.6</ele>
        <time>2024-03-01T16:12:53Z</time>
      </trkpt>
      <trkpt lat="44.39707" lon="4.41441">
        <ele>92.5</ele>
        <time>2024-03-01T16:13:03Z</time>
      </trkpt>
      <trkpt lat="44.39701" lon="4.41416">
        <ele>92.4</ele>
        <time>2024-03-01T16:13:12Z</time>
      </trkpt>
      <trkpt lat="44.39691" lon="4.41394">
        <ele>91.7</ele>
        <time>2024-03-01T16:13:23Z</time>
      </trkpt>
      <trkpt lat="44.3969" lon="4.41368">
        <ele>91</ele>
        <time>2024-03-01T16:13:33Z</time>
      </trkpt>
      <trkpt lat="44.39691" lon="4.41342">
        <ele>92.3</ele>
        <time>2024-03-01T16:13:44Z</time>
      </trkpt>
      <trkpt lat="44.3969" lon="4.41317">
        <ele>92.3</ele>
        <time>2024-03-01T16:13:53Z</time>
      </trkpt>
      <trkpt lat="44.3969" lon="4.41294">
        <ele>92.9</ele>
        <time>2024-03-01T16:14:02Z</time>
      </trkpt>
      <trkpt lat="44.3969" lon="4.41291">
        <ele>93</ele>
        <time>2024-03-01T16:14:03Z</time>
      </trkpt>
      <trkpt lat="44.39693" lon="4.41266">
        <ele>93.6</ele>
        <time>2024-03-01T16:14:11Z</time>
      </trkpt>
      <trkpt lat="44.39697" lon="4.4124">
        <ele>93.9</ele>
        <time>2024-03-01T16:14:20Z</time>
      </trkpt>
      <trkpt lat="44.39701" lon="4.41213">
        <ele>94.1</ele>
        <time>2024-03-01T16:14:28Z</time>
      </trkpt>
      <trkpt lat="44.39705" lon="4.41186">
        <ele>94.2</ele>
        <time>2024-03-01T16:14:36Z</time>
      </trkpt>
      <trkpt lat="44.39708" lon="4.4116">
        <ele>94.1</ele>
        <time>2024-03-01T16:14:44Z</time>
      </trkpt>
      <trkpt lat="44.3971" lon="4.41134">
        <ele>94.2</ele>
        <time>2024-03-01T16:14:51Z</time>
      </trkpt>
      <trkpt lat="44.39723" lon="4.41117">
        <ele>94.3</ele>
        <time>2024-03-01T16:14:58Z</time>
      </trkpt>
      <trkpt lat="44.39735" lon="4.41098">
        <ele>94.5</ele>
        <time>2024-03-01T16:15:05Z</time>
      </trkpt>
      <trkpt lat="44.3974" lon="4.41072">
        <ele>94.7</ele>
        <time>2024-03-01T16:15:12Z</time>
      </trkpt>
      <trkpt lat="44.39747" lon="4.41049">
        <ele>95</ele>
        <time>2024-03-01T16:15:19Z</time>
      </trkpt>
      <trkpt lat="44.39759" lon="4.41026">
        <ele>95.3</ele>
        <time>2024-03-01T16:15:27Z</time>
      </trkpt>
      <trkpt lat="44.39767" lon="4.41002">
        <ele>95.4</ele>
        <time>2024-03-01T16:15:35Z</time>
      </trkpt>
      <trkpt lat="44.39766" lon="4.40976">
        <ele>95.5</ele>
        <time>2024-03-01T16:15:42Z</time>
      </trkpt>
      <trkpt lat="44.39764" lon="4.40951">
        <ele>95.6</ele>
        <time>2024-03-01T16:15:49Z</time>
      </trkpt>
      <trkpt lat="44.3977" lon="4.40925">
        <ele>95.8</ele>
        <time>2024-03-01T16:15:57Z</time>
      </trkpt>
      <trkpt lat="44.39773" lon="4.40897">
        <ele>96.1</ele>
        <time>2024-03-01T16:16:05Z</time>
      </trkpt>
      <trkpt lat="44.39774" lon="4.40871">
        <ele>96.6</ele>
        <time>2024-03-01T16:16:13Z</time>
      </trkpt>
      <trkpt lat="44.39777" lon="4.40846">
        <ele>97.9</ele>
        <time>2024-03-01T16:16:21Z</time>
      </trkpt>
      <trkpt lat="44.39778" lon="4.40821">
        <ele>99.9</ele>
        <time>2024-03-01T16:16:31Z</time>
      </trkpt>
      <trkpt lat="44.39778" lon="4.40797">
        <ele>101</ele>
        <time>2024-03-01T16:16:40Z</time>
      </trkpt>
      <trkpt lat="44.39783" lon="4.4077">
        <ele>101.8</ele>
        <time>2024-03-01T16:16:49Z</time>
      </trkpt>
      <trkpt lat="44.39783" lon="4.40743">
        <ele>103.4</ele>
        <time>2024-03-01T16:16:57Z</time>
      </trkpt>
      <trkpt lat="44.39782" lon="4.40725">
        <ele>104.6</ele>
        <time>2024-03-01T16:17:03Z</time>
      </trkpt>
      <trkpt lat="44.39786" lon="4.4071">
        <ele>105.8</ele>
        <time>2024-03-01T16:17:11Z</time>
      </trkpt>
      <trkpt lat="44.39782" lon="4.40736">
        <ele>103.8</ele>
        <time>2024-03-01T16:17:23Z</time>
      </trkpt>
      <trkpt lat="44.39781" lon="4.40763">
        <ele>102.1</ele>
        <time>2024-03-01T16:17:32Z</time>
      </trkpt>
      <trkpt lat="44.3978" lon="4.40789">
        <ele>101.2</ele>
        <time>2024-03-01T16:17:40Z</time>
      </trkpt>
      <trkpt lat="44.3978" lon="4.40813">
        <ele>100.3</ele>
        <time>2024-03-01T16:17:51Z</time>
      </trkpt>
      <trkpt lat="44.3978" lon="4.40787">
        <ele>101.2</ele>
        <time>2024-03-01T16:18:00Z</time>
      </trkpt>
      <trkpt lat="44.39784" lon="4.4076">
        <ele>102.3</ele>
        <time>2024-03-01T16:18:09Z</time>
      </trkpt>
      <trkpt lat="44.39784" lon="4.40734">
        <ele>103.9</ele>
        <time>2024-03-01T16:18:18Z</time>
      </trkpt>
      <trkpt lat="44.39783" lon="4.40729">
        <ele>104.3</ele>
        <time>2024-03-01T16:18:20Z</time>
      </trkpt>
      <trkpt lat="44.39786" lon="4.40711">
        <ele>105.7</ele>
        <time>2024-03-01T16:18:28Z</time>
      </trkpt>
      <trkpt lat="44.39796" lon="4.40688">
        <ele>107.2</ele>
        <time>2024-03-01T16:18:38Z</time>
      </trkpt>
      <trkpt lat="44.39799" lon="4.40663">
        <ele>108.3</ele>
        <time>2024-03-01T16:18:47Z</time>
      </trkpt>
      <trkpt lat="44.39804" lon="4.40639">
        <ele>109.2</ele>
        <time>2024-03-01T16:18:55Z</time>
      </trkpt>
      <trkpt lat="44.39814" lon="4.40617">
        <ele>110</ele>
        <time>2024-03-01T16:19:03Z</time>
      </trkpt>
      <trkpt lat="44.39824" lon="4.40595">
        <ele>110.3</ele>
        <time>2024-03-01T16:19:11Z</time>
      </trkpt>
      <trkpt lat="44.39833" lon="4.40573">
        <ele>110.2</ele>
        <time>2024-03-01T16:19:18Z</time>
      </trkpt>
      <trkpt lat="44.39839" lon="4.40547">
        <ele>110.1</ele>
        <time>2024-03-01T16:19:25Z</time>
      </trkpt>
      <trkpt lat="44.39842" lon="4.40522">
        <ele>110</ele>
        <time>2024-03-01T16:19:32Z</time>
      </trkpt>
      <trkpt lat="44.39843" lon="4.40495">
        <ele>109.7</ele>
        <time>2024-03-01T16:19:40Z</time>
      </trkpt>
      <trkpt lat="44.39858" lon="4.40478">
        <ele>108.7</ele>
        <time>2024-03-01T16:19:47Z</time>
      </trkpt>
      <trkpt lat="44.39875" lon="4.40465">
        <ele>107.6</ele>
        <time>2024-03-01T16:19:53Z</time>
      </trkpt>
      <trkpt lat="44.39888" lon="4.40445">
        <ele>106.8</ele>
        <time>2024-03-01T16:20:00Z</time>
      </trkpt>
      <trkpt lat="44.39899" lon="4.40422">
        <ele>106.2</ele>
        <time>2024-03-01T16:20:08Z</time>
      </trkpt>
      <trkpt lat="44.3991" lon="4.40396">
        <ele>105.6</ele>
        <time>2024-03-01T16:20:15Z</time>
      </trkpt>
      <trkpt lat="44.39919" lon="4.40373">
        <ele>105.2</ele>
        <time>2024-03-01T16:20:21Z</time>
      </trkpt>
      <trkpt lat="44.39932" lon="4.40351">
        <ele>105.2</ele>
        <time>2024-03-01T16:20:28Z</time>
      </trkpt>
      <trkpt lat="44.39941" lon="4.40326">
        <ele>105.5</ele>
        <time>2024-03-01T16:20:36Z</time>
      </trkpt>
      <trkpt lat="44.39943" lon="4.403">
        <ele>106.3</ele>
        <time>2024-03-01T16:20:44Z</time>
      </trkpt>
      <trkpt lat="44.39944" lon="4.40273">
        <ele>107.6</ele>
        <time>2024-03-01T16:20:53Z</time>
      </trkpt>
      <trkpt lat="44.39949" lon="4.40247">
        <ele>109.1</ele>
        <time>2024-03-01T16:21:01Z</time>
      </trkpt>
      <trkpt lat="44.39959" lon="4.40222">
        <ele>110.8</ele>
        <time>2024-03-01T16:21:10Z</time>
      </trkpt>
      <trkpt lat="44.39963" lon="4.40196">
        <ele>112.6</ele>
        <time>2024-03-01T16:21:20Z</time>
      </trkpt>
      <trkpt lat="44.39961" lon="4.40169">
        <ele>113.9</ele>
        <time>2024-03-01T16:21:28Z</time>
      </trkpt>
      <trkpt lat="44.39962" lon="4.40143">
        <ele>115.7</ele>
        <time>2024-03-01T16:21:36Z</time>
      </trkpt>
      <trkpt lat="44.39964" lon="4.40116">
        <ele>118.5</ele>
        <time>2024-03-01T16:21:45Z</time>
      </trkpt>
      <trkpt lat="44.39964" lon="4.40089">
        <ele>119.2</ele>
        <time>2024-03-01T16:21:55Z</time>
      </trkpt>
      <trkpt lat="44.39956" lon="4.40064">
        <ele>118.2</ele>
        <time>2024-03-01T16:22:03Z</time>
      </trkpt>
      <trkpt lat="44.39947" lon="4.40039">
        <ele>117.9</ele>
        <time>2024-03-01T16:22:11Z</time>
      </trkpt>
      <trkpt lat="44.39942" lon="4.40015">
        <ele>118.5</ele>
        <time>2024-03-01T16:22:19Z</time>
      </trkpt>
      <trkpt lat="44.39935" lon="4.3999">
        <ele>118.5</ele>
        <time>2024-03-01T16:22:27Z</time>
      </trkpt>
      <trkpt lat="44.39933" lon="4.39964">
        <ele>116.9</ele>
        <time>2024-03-01T16:22:34Z</time>
      </trkpt>
      <trkpt lat="44.3993" lon="4.39937">
        <ele>114.4</ele>
        <time>2024-03-01T16:22:41Z</time>
      </trkpt>
      <trkpt lat="44.39929" lon="4.39912">
        <ele>112.1</ele>
        <time>2024-03-01T16:22:46Z</time>
      </trkpt>
      <trkpt lat="44.39932" lon="4.39884">
        <ele>110.2</ele>
        <time>2024-03-01T16:22:52Z</time>
      </trkpt>
      <trkpt lat="44.39934" lon="4.39858">
        <ele>108.8</ele>
        <time>2024-03-01T16:22:58Z</time>
      </trkpt>
      <trkpt lat="44.39936" lon="4.39831">
        <ele>107.7</ele>
        <time>2024-03-01T16:23:05Z</time>
      </trkpt>
      <trkpt lat="44.39932" lon="4.39802">
        <ele>106.3</ele>
        <time>2024-03-01T16:23:12Z</time>
      </trkpt>
      <trkpt lat="44.39928" lon="4.39775">
        <ele>103.9</ele>
        <time>2024-03-01T16:23:20Z</time>
      </trkpt>
      <trkpt lat="44.39924" lon="4.39749">
        <ele>101.5</ele>
        <time>2024-03-01T16:23:27Z</time>
      </trkpt>
      <trkpt lat="44.39919" lon="4.39724">
        <ele>99.5</ele>
        <time>2024-03-01T16:23:34Z</time>
      </trkpt>
      <trkpt lat="44.39913" lon="4.39697">
        <ele>97.6</ele>
        <time>2024-03-01T16:23:41Z</time>
      </trkpt>
      <trkpt lat="44.39912" lon="4.39672">
        <ele>96.2</ele>
        <time>2024-03-01T16:23:47Z</time>
      </trkpt>
      <trkpt lat="44.39911" lon="4.39644">
        <ele>94.7</ele>
        <time>2024-03-01T16:23:54Z</time>
      </trkpt>
      <trkpt lat="44.39904" lon="4.39616">
        <ele>92.9</ele>
        <time>2024-03-01T16:24:01Z</time>
      </trkpt>
      <trkpt lat="44.39905" lon="4.39591">
        <ele>91.7</ele>
        <time>2024-03-01T16:24:07Z</time>
      </trkpt>
      <trkpt lat="44.39893" lon="4.39571">
        <ele>91.3</ele>
        <time>2024-03-01T16:24:15Z</time>
      </trkpt>
      <trkpt lat="44.39877" lon="4.39558">
        <ele>91.3</ele>
        <time>2024-03-01T16:24:23Z</time>
      </trkpt>
      <trkpt lat="44.39866" lon="4.39536">
        <ele>91.4</ele>
        <time>2024-03-01T16:24:31Z</time>
      </trkpt>
      <trkpt lat="44.39864" lon="4.3951">
        <ele>91.3</ele>
        <time>2024-03-01T16:24:38Z</time>
      </trkpt>
      <trkpt lat="44.39866" lon="4.39483">
        <ele>91.3</ele>
        <time>2024-03-01T16:24:45Z</time>
      </trkpt>
      <trkpt lat="44.39868" lon="4.39457">
        <ele>91.4</ele>
        <time>2024-03-01T16:24:52Z</time>
      </trkpt>
      <trkpt lat="44.39871" lon="4.39432">
        <ele>91.5</ele>
        <time>2024-03-01T16:24:59Z</time>
      </trkpt>
      <trkpt lat="44.39874" lon="4.39406">
        <ele>91.5</ele>
        <time>2024-03-01T16:25:06Z</time>
      </trkpt>
      <trkpt lat="44.39876" lon="4.3938">
        <ele>91.6</ele>
        <time>2024-03-01T16:25:13Z</time>
      </trkpt>
      <trkpt lat="44.3988" lon="4.39354">
        <ele>91.6</ele>
        <time>2024-03-01T16:25:20Z</time>
      </trkpt>
      <trkpt lat="44.39883" lon="4.39328">
        <ele>91.7</ele>
        <time>2024-03-01T16:25:27Z</time>
      </trkpt>
      <trkpt lat="44.39887" lon="4.39302">
        <ele>91.8</ele>
        <time>2024-03-01T16:25:34Z</time>
      </trkpt>
      <trkpt lat="44.3989" lon="4.39275">
        <ele>91.9</ele>
        <time>2024-03-01T16:25:41Z</time>
      </trkpt>
      <trkpt lat="44.39892" lon="4.3925">
        <ele>92.1</ele>
        <time>2024-03-01T16:25:48Z</time>
      </trkpt>
      <trkpt lat="44.39895" lon="4.39222">
        <ele>92.4</ele>
        <time>2024-03-01T16:25:56Z</time>
      </trkpt>
      <trkpt lat="44.39899" lon="4.39196">
        <ele>92.8</ele>
        <time>2024-03-01T16:26:04Z</time>
      </trkpt>
      <trkpt lat="44.39903" lon="4.39168">
        <ele>93.1</ele>
        <time>2024-03-01T16:26:12Z</time>
      </trkpt>
      <trkpt lat="44.39906" lon="4.39142">
        <ele>93.3</ele>
        <time>2024-03-01T16:26:19Z</time>
      </trkpt>
      <trkpt lat="44.39908" lon="4.39115">
        <ele>93.6</ele>
        <time>2024-03-01T16:26:27Z</time>
      </trkpt>
      <trkpt lat="44.39912" lon="4.39088">
        <ele>94</ele>
        <time>2024-03-01T16:26:35Z</time>
      </trkpt>
      <trkpt lat="44.39917" lon="4.39064">
        <ele>94.3</ele>
        <time>2024-03-01T16:26:42Z</time>
      </trkpt>
      <trkpt lat="44.39923" lon="4.39038">
        <ele>94.7</ele>
        <time>2024-03-01T16:26:50Z</time>
      </trkpt>
      <trkpt lat="44.39925" lon="4.39013">
        <ele>95.1</ele>
        <time>2024-03-01T16:26:58Z</time>
      </trkpt>
      <trkpt lat="44.39911" lon="4.38995">
        <ele>96</ele>
        <time>2024-03-01T16:27:06Z</time>
      </trkpt>
      <trkpt lat="44.39894" lon="4.3898">
        <ele>95.2</ele>
        <time>2024-03-01T16:27:14Z</time>
      </trkpt>
      <trkpt lat="44.39877" lon="4.38968">
        <ele>94.6</ele>
        <time>2024-03-01T16:27:21Z</time>
      </trkpt>
      <trkpt lat="44.39861" lon="4.38955">
        <ele>94.2</ele>
        <time>2024-03-01T16:27:28Z</time>
      </trkpt>
      <trkpt lat="44.39843" lon="4.3894">
        <ele>93.9</ele>
        <time>2024-03-01T16:27:36Z</time>
      </trkpt>
      <trkpt lat="44.39825" lon="4.38928">
        <ele>93.6</ele>
        <time>2024-03-01T16:27:44Z</time>
      </trkpt>
      <trkpt lat="44.39813" lon="4.38909">
        <ele>93.5</ele>
        <time>2024-03-01T16:27:53Z</time>
      </trkpt>
      <trkpt lat="44.39823" lon="4.38887">
        <ele>93.8</ele>
        <time>2024-03-01T16:28:02Z</time>
      </trkpt>
      <trkpt lat="44.39837" lon="4.38871">
        <ele>94.8</ele>
        <time>2024-03-01T16:28:11Z</time>
      </trkpt>
      <trkpt lat="44.39837" lon="4.38846">
        <ele>96.2</ele>
        <time>2024-03-01T16:28:21Z</time>
      </trkpt>
      <trkpt lat="44.39833" lon="4.38823">
        <ele>97.4</ele>
        <time>2024-03-01T16:28:32Z</time>
      </trkpt>
      <trkpt lat="44.39832" lon="4.38796">
        <ele>98.1</ele>
        <time>2024-03-01T16:28:43Z</time>
      </trkpt>
      <trkpt lat="44.39832" lon="4.38788">
        <ele>98.3</ele>
        <time>2024-03-01T16:28:47Z</time>
      </trkpt>
    </trkseg>
  </trk>
</gpx>